Observation data for Estelline on 07/20/2019      Previous  Date  Next       Current Mesonet Observations  Soil Data  Daily Summary Page  Observations in Plain Language
KES1 200500Z 16011KT 31/16 A2985 RMK A01 T03070161  RH  041%=      5-min Rain = 0
KES1 200501Z 16011G16KT 31/16 A2985 RMK A01 T03070161  RH  041%=      5-min Rain = 0
KES1 200502Z 16012KT 31/16 A2985 RMK A01 T03060160  RH  041%=      5-min Rain = 0
KES1 200503Z 16010KT 31/16 A2985 RMK A01 T03070160  RH  041%=      5-min Rain = 0
KES1 200504Z 16013KT 31/16 A2985 RMK A01 T03070160  RH  041%=      5-min Rain = 0
KES1 200505Z 16013KT 31/16 A2985 RMK A01 T03070160  RH  041%=      5-min Rain = 0
KES1 200506Z 16012KT 31/16 A2985 RMK A01 T03070160  RH  041%=      5-min Rain = 0
KES1 200507Z 16011G16KT 31/16 A2985 RMK A01 T03070159  RH  041%=      5-min Rain = 0
KES1 200508Z 16010G15KT 31/16 A2985 RMK A01 T03060160  RH  041%=      5-min Rain = 0
KES1 200509Z 16011KT 31/16 A2985 RMK A01 T03060160  RH  041%=      5-min Rain = 0
KES1 200510Z 16012KT 31/16 A2985 RMK A01 T03050159  RH  041%=      5-min Rain = 0
KES1 200511Z 16012KT 31/16 A2985 RMK A01 T03050159  RH  041%=      5-min Rain = 0
KES1 200512Z 16010KT 31/16 A2985 RMK A01 T03050159  RH  041%=      5-min Rain = 0
KES1 200513Z 16013KT 31/16 A2985 RMK A01 T03050159  RH  041%=      5-min Rain = 0
KES1 200514Z 16012KT 31/16 A2985 RMK A01 T03050159  RH  041%=      5-min Rain = 0
KES1 200515Z 16012KT 31/16 A2985 RMK A01 T03050158  RH  041%=      5-min Rain = 0
KES1 200516Z 16011KT 31/16 A2985 RMK A01 T03050159  RH  041%=      5-min Rain = 0
KES1 200517Z 16010KT 31/16 A2985 RMK A01 T03050158  RH  041%=      5-min Rain = 0
KES1 200518Z 16012KT 30/16 A2985 RMK A01 T03040158  RH  041%=      5-min Rain = 0
KES1 200519Z 16010KT 30/16 A2985 RMK A01 T03040158  RH  041%=      5-min Rain = 0
KES1 200520Z 16012KT 30/16 A2985 RMK A01 T03040158  RH  041%=      5-min Rain = 0
KES1 200521Z 16009KT 30/16 A2985 RMK A01 T03040158  RH  041%=      5-min Rain = 0
KES1 200522Z 16011KT 30/16 A2985 RMK A01 T03030158  RH  041%=      5-min Rain = 0
KES1 200523Z 16011KT 30/16 A2985 RMK A01 T03030158  RH  042%=      5-min Rain = 0
KES1 200524Z 16012KT 30/16 A2985 RMK A01 T03030157  RH  041%=      5-min Rain = 0
KES1 200525Z 16011KT 30/16 A2985 RMK A01 T03020157  RH  041%=      5-min Rain = 0
KES1 200526Z 16012KT 30/16 A2985 RMK A01 T03020157  RH  041%=      5-min Rain = 0
KES1 200527Z 16011KT 30/16 A2985 RMK A01 T03030157  RH  041%=      5-min Rain = 0
KES1 200528Z 16011KT 30/16 A2985 RMK A01 T03020157  RH  042%=      5-min Rain = 0
KES1 200529Z 17010KT 30/16 A2985 RMK A01 T03020157  RH  042%=      5-min Rain = 0
KES1 200530Z 16011KT 30/16 A2985 RMK A01 T03010157  RH  042%=      5-min Rain = 0
KES1 200531Z 16011G16KT 30/16 A2985 RMK A01 T03010157  RH  042%=      5-min Rain = 0
KES1 200532Z 16011KT 30/16 A2985 RMK A01 T03010157  RH  042%=      5-min Rain = 0
KES1 200533Z 17009KT 30/16 A2985 RMK A01 T03000157  RH  042%=      5-min Rain = 0
KES1 200534Z 16010KT 30/16 A2985 RMK A01 T03000158  RH  042%=      5-min Rain = 0
KES1 200535Z 16010KT 30/16 A2985 RMK A01 T03000157  RH  042%=      5-min Rain = 0
KES1 200536Z 17011KT 30/16 A2985 RMK A01 T03000157  RH  042%=      5-min Rain = 0
KES1 200537Z 16011KT 30/16 A2985 RMK A01 T03000157  RH  042%=      5-min Rain = 0
KES1 200538Z 16011G16KT 30/16 A2985 RMK A01 T03000157  RH  042%=      5-min Rain = 0
KES1 200539Z 17012KT 30/16 A2985 RMK A01 T02990157  RH  042%=      5-min Rain = 0
KES1 200540Z 16011KT 30/16 A2985 RMK A01 T02990157  RH  042%=      5-min Rain = 0
KES1 200541Z 16012KT 30/16 A2985 RMK A01 T03000157  RH  042%=      5-min Rain = 0
KES1 200542Z 16014KT 30/16 A2985 RMK A01 T03000157  RH  042%=      5-min Rain = 0
KES1 200543Z 17011KT 30/16 A2985 RMK A01 T03000157  RH  042%=      5-min Rain = 0
KES1 200544Z 16012KT 30/16 A2985 RMK A01 T03000157  RH  042%=      5-min Rain = 0
KES1 200545Z 16013KT 30/16 A2985 RMK A01 T03000157  RH  042%=      5-min Rain = 0
KES1 200546Z 17012KT 30/16 A2985 RMK A01 T03000157  RH  042%=      5-min Rain = 0
KES1 200547Z 16011KT 30/16 A2985 RMK A01 T03000157  RH  042%=      5-min Rain = 0
KES1 200548Z 17013KT 30/16 A2985 RMK A01 T02990157  RH  042%=      5-min Rain = 0
KES1 200549Z 17011KT 30/16 A2985 RMK A01 T02990157  RH  042%=      5-min Rain = 0
KES1 200550Z 17009KT 30/16 A2985 RMK A01 T02990157  RH  042%=      5-min Rain = 0
KES1 200551Z 17011KT 30/16 A2985 RMK A01 T02980157  RH  043%=      5-min Rain = 0
KES1 200552Z 16012KT 30/16 A2985 RMK A01 T02970157  RH  043%=      5-min Rain = 0
KES1 200553Z 16012KT 30/16 A2985 RMK A01 T02980157  RH  043%=      5-min Rain = 0
KES1 200554Z 16012KT 30/16 A2985 RMK A01 T02970157  RH  043%=      5-min Rain = 0
KES1 200555Z 17012KT 30/16 A2985 RMK A01 T02980157  RH  043%=      5-min Rain = 0
KES1 200556Z 17011KT 30/16 A2985 RMK A01 T02970157  RH  043%=      5-min Rain = 0
KES1 200557Z 16013KT 30/16 A2985 RMK A01 T02970157  RH  043%=      5-min Rain = 0
KES1 200558Z 17011KT 30/16 A2985 RMK A01 T02960156  RH  043%=      5-min Rain = 0
KES1 200559Z 16011KT 30/16 A2985 RMK A01 T02960157  RH  043%=      5-min Rain = 0
KES1 200600Z 16010KT 30/16 A2985 RMK A01 T02960157  RH  043%=      5-min Rain = 0
KES1 200601Z 16010KT 30/16 A2985 RMK A01 T02960157  RH  043%=      5-min Rain = 0
KES1 200602Z 17012KT 30/16 A2985 RMK A01 T02950157  RH  043%=      5-min Rain = 0
KES1 200603Z 17012KT 30/16 A2985 RMK A01 T02950157  RH  043%=      5-min Rain = 0
KES1 200604Z 17012KT 30/16 A2985 RMK A01 T02950157  RH  043%=      5-min Rain = 0
KES1 200605Z 17012KT 30/16 A2985 RMK A01 T02950157  RH  043%=      5-min Rain = 0
KES1 200606Z 16013KT 29/16 A2985 RMK A01 T02940157  RH  043%=      5-min Rain = 0
KES1 200607Z 16013KT 30/16 A2985 RMK A01 T02950157  RH  043%=      5-min Rain = 0
KES1 200608Z 16012KT 30/16 A2985 RMK A01 T02950157  RH  043%=      5-min Rain = 0
KES1 200609Z 16011KT 30/16 A2985 RMK A01 T02950158  RH  043%=      5-min Rain = 0
KES1 200610Z 16014KT 29/16 A2985 RMK A01 T02940157  RH  043%=      5-min Rain = 0
KES1 200611Z 16013KT 29/16 A2985 RMK A01 T02940157  RH  043%=      5-min Rain = 0
KES1 200612Z 17012KT 29/16 A2985 RMK A01 T02940157  RH  043%=      5-min Rain = 0
KES1 200613Z 16014KT 29/16 A2985 RMK A01 T02940157  RH  043%=      5-min Rain = 0
KES1 200614Z 17013KT 29/16 A2985 RMK A01 T02940157  RH  043%=      5-min Rain = 0
KES1 200615Z 17010KT 29/16 A2985 RMK A01 T02940157  RH  043%=      5-min Rain = 0
KES1 200616Z 17011KT 29/16 A2985 RMK A01 T02940158  RH  044%=      5-min Rain = 0
KES1 200617Z 17012KT 29/16 A2985 RMK A01 T02940157  RH  044%=      5-min Rain = 0
KES1 200618Z 17010G15KT 29/16 A2985 RMK A01 T02930157  RH  044%=      5-min Rain = 0
KES1 200619Z 17013KT 29/16 A2985 RMK A01 T02930157  RH  044%=      5-min Rain = 0
KES1 200620Z 17012G17KT 29/16 A2985 RMK A01 T02930157  RH  044%=      5-min Rain = 0
KES1 200621Z 17011KT 29/16 A2985 RMK A01 T02930157  RH  044%=      5-min Rain = 0
KES1 200622Z 17011KT 29/16 A2985 RMK A01 T02940157  RH  044%=      5-min Rain = 0
KES1 200623Z 17011G16KT 29/16 A2985 RMK A01 T02930158  RH  044%=      5-min Rain = 0
KES1 200624Z 17012G17KT 29/16 A2985 RMK A01 T02930157  RH  044%=      5-min Rain = 0
KES1 200625Z 17010G15KT 29/16 A2985 RMK A01 T02940157  RH  044%=      5-min Rain = 0
KES1 200626Z 17009KT 29/16 A2985 RMK A01 T02940158  RH  044%=      5-min Rain = 0
KES1 200627Z 17010KT 29/16 A2985 RMK A01 T02930158  RH  044%=      5-min Rain = 0
KES1 200628Z 17012KT 29/16 A2985 RMK A01 T02930158  RH  044%=      5-min Rain = 0
KES1 200629Z 17010KT 29/16 A2985 RMK A01 T02930158  RH  044%=      5-min Rain = 0
KES1 200630Z 17010KT 29/16 A2985 RMK A01 T02930158  RH  044%=      5-min Rain = 0
KES1 200631Z 17011G16KT 29/16 A2985 RMK A01 T02920158  RH  044%=      5-min Rain = 0
KES1 200632Z 17010KT 29/16 A2985 RMK A01 T02920158  RH  044%=      5-min Rain = 0
KES1 200633Z 17012KT 29/16 A2985 RMK A01 T02920158  RH  044%=      5-min Rain = 0
KES1 200634Z 17010KT 29/16 A2985 RMK A01 T02930159  RH  044%=      5-min Rain = 0
KES1 200635Z 17011G17KT 29/16 A2985 RMK A01 T02920158  RH  044%=      5-min Rain = 0
KES1 200636Z 17011G18KT 29/16 A2985 RMK A01 T02920159  RH  044%=      5-min Rain = 0
KES1 200637Z 17012KT 29/16 A2985 RMK A01 T02920158  RH  044%=      5-min Rain = 0
KES1 200638Z 17012KT 29/16 A2985 RMK A01 T02910158  RH  044%=      5-min Rain = 0
KES1 200639Z 17012KT 29/16 A2985 RMK A01 T02920159  RH  045%=      5-min Rain = 0
KES1 200640Z 16013KT 29/16 A2985 RMK A01 T02910159  RH  045%=      5-min Rain = 0
KES1 200641Z 17014KT 29/16 A2985 RMK A01 T02920159  RH  045%=      5-min Rain = 0
KES1 200642Z 17011G16KT 29/16 A2985 RMK A01 T02910159  RH  045%=      5-min Rain = 0
KES1 200643Z 17012KT 29/16 A2985 RMK A01 T02910159  RH  045%=      5-min Rain = 0
KES1 200644Z 16013KT 29/16 A2985 RMK A01 T02910159  RH  045%=      5-min Rain = 0
KES1 200645Z 17012G17KT 29/16 A2985 RMK A01 T02900159  RH  045%=      5-min Rain = 0
KES1 200646Z 17014KT 29/16 A2985 RMK A01 T02910159  RH  045%=      5-min Rain = 0
KES1 200647Z 17014KT 29/16 A2985 RMK A01 T02910159  RH  045%=      5-min Rain = 0
KES1 200648Z 18011G16KT 29/16 A2985 RMK A01 T02910159  RH  045%=      5-min Rain = 0
KES1 200649Z 17013KT 29/16 A2985 RMK A01 T02900159  RH  045%=      5-min Rain = 0
KES1 200650Z 17010KT 29/16 A2985 RMK A01 T02900160  RH  045%=      5-min Rain = 0
KES1 200651Z 17014G19KT 29/16 A2985 RMK A01 T02900160  RH  045%=      5-min Rain = 0
KES1 200652Z 17011KT 29/16 A2985 RMK A01 T02900160  RH  045%=      5-min Rain = 0
KES1 200653Z 17012KT 29/16 A2985 RMK A01 T02900160  RH  045%=      5-min Rain = 0
KES1 200654Z 17011KT 29/16 A2985 RMK A01 T02900160  RH  045%=      5-min Rain = 0
KES1 200655Z 18011KT 29/16 A2985 RMK A01 T02900160  RH  045%=      5-min Rain = 0
KES1 200656Z 17012KT 29/16 A2985 RMK A01 T02900160  RH  045%=      5-min Rain = 0
KES1 200657Z 17011KT 29/16 A2985 RMK A01 T02890160  RH  046%=      5-min Rain = 0
KES1 200658Z 17011KT 29/16 A2985 RMK A01 T02890161  RH  046%=      5-min Rain = 0
KES1 200659Z 17011KT 29/16 A2985 RMK A01 T02890160  RH  046%=      5-min Rain = 0
KES1 200700Z 17011KT 29/16 A2985 RMK A01 T02890161  RH  046%=      5-min Rain = 0
KES1 200701Z 17013KT 29/16 A2985 RMK A01 T02890161  RH  046%=      5-min Rain = 0
KES1 200702Z 18011KT 29/16 A2985 RMK A01 T02890161  RH  046%=      5-min Rain = 0
KES1 200703Z 18011KT 29/16 A2984 RMK A01 T02890161  RH  046%=      5-min Rain = 0
KES1 200704Z 17012KT 29/16 A2984 RMK A01 T02890161  RH  046%=      5-min Rain = 0
KES1 200705Z 17012G17KT 29/16 A2984 RMK A01 T02890161  RH  046%=      5-min Rain = 0
KES1 200706Z 17010KT 29/16 A2984 RMK A01 T02890161  RH  046%=      5-min Rain = 0
KES1 200707Z 17009KT 29/16 A2984 RMK A01 T02890161  RH  046%=      5-min Rain = 0
KES1 200708Z 18012KT 29/16 A2984 RMK A01 T02880161  RH  046%=      5-min Rain = 0
KES1 200709Z 18012KT 29/16 A2984 RMK A01 T02880162  RH  046%=      5-min Rain = 0
KES1 200710Z 18013KT 29/16 A2984 RMK A01 T02880161  RH  046%=      5-min Rain = 0
KES1 200711Z 17012KT 29/16 A2984 RMK A01 T02880161  RH  046%=      5-min Rain = 0
KES1 200712Z 18012G17KT 29/16 A2984 RMK A01 T02890161  RH  046%=      5-min Rain = 0
KES1 200713Z 18012KT 29/16 A2984 RMK A01 T02890161  RH  046%=      5-min Rain = 0
KES1 200714Z 17010KT 29/16 A2984 RMK A01 T02890161  RH  046%=      5-min Rain = 0
KES1 200715Z 17011KT 29/16 A2984 RMK A01 T02890162  RH  046%=      5-min Rain = 0
KES1 200716Z 17011KT 29/16 A2984 RMK A01 T02890162  RH  046%=      5-min Rain = 0
KES1 200717Z 17012KT 29/16 A2984 RMK A01 T02890162  RH  046%=      5-min Rain = 0
KES1 200718Z 17013KT 29/16 A2984 RMK A01 T02890162  RH  046%=      5-min Rain = 0
KES1 200719Z 17010KT 29/16 A2984 RMK A01 T02890161  RH  046%=      5-min Rain = 0
KES1 200720Z 17012G17KT 29/16 A2984 RMK A01 T02890162  RH  046%=      5-min Rain = 0
KES1 200721Z 17011KT 29/16 A2984 RMK A01 T02880162  RH  046%=      5-min Rain = 0
KES1 200722Z 17010G15KT 29/16 A2984 RMK A01 T02880162  RH  046%=      5-min Rain = 0
KES1 200723Z 17012KT 29/16 A2984 RMK A01 T02870162  RH  047%=      5-min Rain = 0
KES1 200724Z 17011KT 29/16 A2984 RMK A01 T02870162  RH  047%=      5-min Rain = 0
KES1 200725Z 17010KT 29/16 A2984 RMK A01 T02870162  RH  047%=      5-min Rain = 0
KES1 200726Z 17012KT 29/16 A2984 RMK A01 T02870162  RH  047%=      5-min Rain = 0
KES1 200727Z 17010KT 29/16 A2984 RMK A01 T02870162  RH  047%=      5-min Rain = 0
KES1 200728Z 18011KT 29/16 A2984 RMK A01 T02860162  RH  047%=      5-min Rain = 0
KES1 200729Z 17011KT 29/16 A2984 RMK A01 T02860162  RH  047%=      5-min Rain = 0
KES1 200730Z 18010KT 29/16 A2984 RMK A01 T02860162  RH  047%=      5-min Rain = 0
KES1 200731Z 17010KT 29/16 A2984 RMK A01 T02860162  RH  047%=      5-min Rain = 0
KES1 200732Z 17011KT 29/16 A2984 RMK A01 T02860162  RH  047%=      5-min Rain = 0
KES1 200733Z 18010KT 29/16 A2984 RMK A01 T02860163  RH  047%=      5-min Rain = 0
KES1 200734Z 17012G18KT 29/16 A2984 RMK A01 T02850162  RH  047%=      5-min Rain = 0
KES1 200735Z 17012KT 29/16 A2984 RMK A01 T02850162  RH  047%=      5-min Rain = 0
KES1 200736Z 17008KT 29/16 A2984 RMK A01 T02850162  RH  047%=      5-min Rain = 0
KES1 200737Z 17008G13KT 29/16 A2984 RMK A01 T02850163  RH  048%=      5-min Rain = 0
KES1 200738Z 17010KT 28/16 A2984 RMK A01 T02840162  RH  048%=      5-min Rain = 0
KES1 200739Z 17009KT 28/16 A2984 RMK A01 T02840163  RH  048%=      5-min Rain = 0
KES1 200740Z 17012KT 28/16 A2984 RMK A01 T02840163  RH  048%=      5-min Rain = 0
KES1 200741Z 17011G16KT 28/16 A2984 RMK A01 T02840163  RH  048%=      5-min Rain = 0
KES1 200742Z 17012KT 28/16 A2984 RMK A01 T02840163  RH  048%=      5-min Rain = 0
KES1 200743Z 17012KT 28/16 A2984 RMK A01 T02840163  RH  048%=      5-min Rain = 0
KES1 200744Z 17012KT 28/16 A2984 RMK A01 T02840163  RH  048%=      5-min Rain = 0
KES1 200745Z 17011KT 28/16 A2984 RMK A01 T02840163  RH  048%=      5-min Rain = 0
KES1 200746Z 17012KT 28/16 A2984 RMK A01 T02830163  RH  048%=      5-min Rain = 0
KES1 200747Z 17011KT 28/16 A2984 RMK A01 T02830163  RH  048%=      5-min Rain = 0
KES1 200748Z 17010KT 28/16 A2984 RMK A01 T02830163  RH  048%=      5-min Rain = 0
KES1 200749Z 16010KT 28/16 A2984 RMK A01 T02830163  RH  048%=      5-min Rain = 0
KES1 200750Z 17010KT 28/16 A2984 RMK A01 T02820163  RH  049%=      5-min Rain = 0
KES1 200751Z 17011KT 28/16 A2984 RMK A01 T02810163  RH  049%=      5-min Rain = 0
KES1 200752Z 18010KT 28/16 A2984 RMK A01 T02810163  RH  049%=      5-min Rain = 0
KES1 200753Z 17011KT 28/16 A2984 RMK A01 T02800163  RH  049%=      5-min Rain = 0
KES1 200754Z 17008G13KT 28/16 A2984 RMK A01 T02810163  RH  049%=      5-min Rain = 0
KES1 200755Z 17010KT 28/16 A2984 RMK A01 T02800163  RH  049%=      5-min Rain = 0
KES1 200756Z 18010KT 28/16 A2984 RMK A01 T02800164  RH  049%=      5-min Rain = 0
KES1 200757Z 17010KT 28/16 A2984 RMK A01 T02800163  RH  049%=      5-min Rain = 0
KES1 200758Z 17009KT 28/16 A2984 RMK A01 T02800164  RH  049%=      5-min Rain = 0
KES1 200759Z 17009KT 28/16 A2984 RMK A01 T02790164  RH  049%=      5-min Rain = 0
KES1 200800Z 17010KT 28/16 A2984 RMK A01 T02790164  RH  049%=      5-min Rain = 0
KES1 200801Z 18009KT 28/16 A2984 RMK A01 T02790164  RH  049%=      5-min Rain = 0
KES1 200802Z 18010G15KT 28/16 A2984 RMK A01 T02790164  RH  050%=      5-min Rain = 0
KES1 200803Z 17009KT 28/16 A2984 RMK A01 T02790163  RH  050%=      5-min Rain = 0
KES1 200804Z 17008KT 28/16 A2984 RMK A01 T02790164  RH  050%=      5-min Rain = 0
KES1 200805Z 17009KT 28/16 A2984 RMK A01 T02780164  RH  050%=      5-min Rain = 0
KES1 200806Z 17009KT 28/16 A2984 RMK A01 T02780164  RH  050%=      5-min Rain = 0
KES1 200807Z 17009KT 28/16 A2984 RMK A01 T02770164  RH  050%=      5-min Rain = 0
KES1 200808Z 17008KT 28/16 A2984 RMK A01 T02770164  RH  050%=      5-min Rain = 0
KES1 200809Z 17010KT 28/16 A2984 RMK A01 T02770164  RH  050%=      5-min Rain = 0
KES1 200810Z 17009KT 28/16 A2985 RMK A01 T02770164  RH  050%=      5-min Rain = 0
KES1 200811Z 17009KT 28/16 A2985 RMK A01 T02760164  RH  050%=      5-min Rain = 0
KES1 200812Z 17010KT 28/16 A2985 RMK A01 T02760164  RH  050%=      5-min Rain = 0
KES1 200813Z 17009KT 28/16 A2985 RMK A01 T02760164  RH  051%=      5-min Rain = 0
KES1 200814Z 17009KT 28/16 A2985 RMK A01 T02750164  RH  051%=      5-min Rain = 0
KES1 200815Z 17009KT 28/16 A2985 RMK A01 T02750164  RH  051%=      5-min Rain = 0
KES1 200816Z 18010KT 28/16 A2985 RMK A01 T02750164  RH  051%=      5-min Rain = 0
KES1 200817Z 18008KT 27/16 A2985 RMK A01 T02740164  RH  051%=      5-min Rain = 0
KES1 200818Z 18010KT 27/16 A2985 RMK A01 T02740164  RH  051%=      5-min Rain = 0
KES1 200819Z 18008G13KT 27/16 A2985 RMK A01 T02740164  RH  051%=      5-min Rain = 0
KES1 200820Z 18008KT 27/16 A2985 RMK A01 T02740164  RH  051%=      5-min Rain = 0
KES1 200821Z 18009KT 27/16 A2985 RMK A01 T02740164  RH  051%=      5-min Rain = 0
KES1 200822Z 18009KT 27/17 A2985 RMK A01 T02740165  RH  051%=      5-min Rain = 0
KES1 200823Z 17008KT 27/16 A2985 RMK A01 T02740164  RH  051%=      5-min Rain = 0
KES1 200824Z 18008KT 27/16 A2985 RMK A01 T02740164  RH  051%=      5-min Rain = 0
KES1 200825Z 18008KT 27/16 A2985 RMK A01 T02740164  RH  051%=      5-min Rain = 0
KES1 200826Z 18009KT 27/16 A2985 RMK A01 T02730164  RH  051%=      5-min Rain = 0
KES1 200827Z 17009KT 27/16 A2985 RMK A01 T02730164  RH  051%=      5-min Rain = 0
KES1 200828Z 18009KT 27/16 A2985 RMK A01 T02730164  RH  051%=      5-min Rain = 0
KES1 200829Z 18007KT 27/16 A2985 RMK A01 T02730164  RH  051%=      5-min Rain = 0
KES1 200830Z 18008KT 27/16 A2985 RMK A01 T02720164  RH  052%=      5-min Rain = 0
KES1 200831Z 17009KT 27/16 A2985 RMK A01 T02720164  RH  052%=      5-min Rain = 0
KES1 200832Z 17009KT 27/16 A2985 RMK A01 T02720164  RH  052%=      5-min Rain = 0
KES1 200833Z 17009KT 27/16 A2985 RMK A01 T02720164  RH  052%=      5-min Rain = 0
KES1 200834Z 17010KT 27/16 A2985 RMK A01 T02720164  RH  052%=      5-min Rain = 0
KES1 200835Z 17008KT 27/16 A2985 RMK A01 T02720164  RH  052%=      5-min Rain = 0
KES1 200836Z 17008KT 27/16 A2985 RMK A01 T02720164  RH  052%=      5-min Rain = 0
KES1 200837Z 18008KT 27/16 A2985 RMK A01 T02710164  RH  052%=      5-min Rain = 0
KES1 200838Z 18008KT 27/16 A2985 RMK A01 T02710164  RH  052%=      5-min Rain = 0
KES1 200839Z 18007KT 27/16 A2985 RMK A01 T02710164  RH  052%=      5-min Rain = 0
KES1 200840Z 18009KT 27/16 A2985 RMK A01 T02700164  RH  052%=      5-min Rain = 0
KES1 200841Z 18008KT 27/16 A2985 RMK A01 T02700164  RH  052%=      5-min Rain = 0
KES1 200842Z 18007KT 27/16 A2985 RMK A01 T02700164  RH  052%=      5-min Rain = 0
KES1 200843Z 18007KT 27/16 A2985 RMK A01 T02700164  RH  052%=      5-min Rain = 0
KES1 200844Z 18006KT 27/16 A2985 RMK A01 T02690164  RH  052%=      5-min Rain = 0
KES1 200845Z 17007KT 27/16 A2985 RMK A01 T02690164  RH  053%=      5-min Rain = 0
KES1 200846Z 18007KT 27/16 A2985 RMK A01 T02690164  RH  053%=      5-min Rain = 0
KES1 200847Z 18007KT 27/16 A2985 RMK A01 T02690164  RH  053%=      5-min Rain = 0
KES1 200848Z 18006KT 27/16 A2985 RMK A01 T02690164  RH  053%=      5-min Rain = 0
KES1 200849Z 18007KT 27/16 A2985 RMK A01 T02680164  RH  053%=      5-min Rain = 0
KES1 200850Z 18007KT 27/16 A2985 RMK A01 T02680163  RH  053%=      5-min Rain = 0
KES1 200851Z 18006KT 27/16 A2985 RMK A01 T02680164  RH  053%=      5-min Rain = 0
KES1 200852Z 18007KT 27/16 A2985 RMK A01 T02680164  RH  053%=      5-min Rain = 0
KES1 200853Z 18005KT 27/16 A2985 RMK A01 T02680163  RH  053%=      5-min Rain = 0
KES1 200854Z 18007KT 27/16 A2985 RMK A01 T02680164  RH  053%=      5-min Rain = 0
KES1 200855Z 19007KT 27/16 A2985 RMK A01 T02670163  RH  053%=      5-min Rain = 0
KES1 200856Z 18006KT 27/16 A2985 RMK A01 T02670163  RH  053%=      5-min Rain = 0
KES1 200857Z 18006KT 27/16 A2985 RMK A01 T02670163  RH  053%=      5-min Rain = 0
KES1 200858Z 19005KT 27/16 A2985 RMK A01 T02670163  RH  053%=      5-min Rain = 0
KES1 200859Z 18005KT 27/16 A2985 RMK A01 T02660163  RH  053%=      5-min Rain = 0
KES1 200900Z 18006KT 27/16 A2985 RMK A01 T02660163  RH  053%=      5-min Rain = 0
KES1 200901Z 18006KT 27/16 A2985 RMK A01 T02650163  RH  053%=      5-min Rain = 0
KES1 200902Z 18006KT 27/16 A2985 RMK A01 T02650163  RH  053%=      5-min Rain = 0
KES1 200903Z 18005KT 27/16 A2985 RMK A01 T02650163  RH  053%=      5-min Rain = 0
KES1 200904Z 18006KT 27/16 A2985 RMK A01 T02650163  RH  053%=      5-min Rain = 0
KES1 200905Z 18005KT 27/16 A2985 RMK A01 T02650163  RH  054%=      5-min Rain = 0
KES1 200906Z 18005KT 26/16 A2985 RMK A01 T02640163  RH  054%=      5-min Rain = 0
KES1 200907Z 18005KT 26/16 A2986 RMK A01 T02640163  RH  054%=      5-min Rain = 0
KES1 200908Z 18005KT 26/16 A2986 RMK A01 T02640163  RH  054%=      5-min Rain = 0
KES1 200909Z 18005KT 26/16 A2986 RMK A01 T02640163  RH  054%=      5-min Rain = 0
KES1 200910Z 18006KT 26/16 A2986 RMK A01 T02640163  RH  054%=      5-min Rain = 0
KES1 200911Z 18006KT 26/16 A2986 RMK A01 T02630163  RH  054%=      5-min Rain = 0
KES1 200912Z 19004KT 26/16 A2986 RMK A01 T02640163  RH  054%=      5-min Rain = 0
KES1 200913Z 18006KT 26/16 A2986 RMK A01 T02640163  RH  054%=      5-min Rain = 0
KES1 200914Z 19005KT 26/16 A2986 RMK A01 T02640163  RH  054%=      5-min Rain = 0
KES1 200915Z 18004KT 26/16 A2986 RMK A01 T02640163  RH  054%=      5-min Rain = 0
KES1 200916Z 18005KT 26/16 A2986 RMK A01 T02630163  RH  054%=      5-min Rain = 0
KES1 200917Z 18004KT 26/16 A2986 RMK A01 T02620163  RH  054%=      5-min Rain = 0
KES1 200918Z 18004KT 26/16 A2986 RMK A01 T02620163  RH  054%=      5-min Rain = 0
KES1 200919Z 18004KT 26/16 A2986 RMK A01 T02620163  RH  054%=      5-min Rain = 0
KES1 200920Z 18005KT 26/16 A2986 RMK A01 T02620163  RH  054%=      5-min Rain = 0
KES1 200921Z 18003KT 26/16 A2986 RMK A01 T02610163  RH  055%=      5-min Rain = 0
KES1 200922Z 18004KT 26/16 A2986 RMK A01 T02610163  RH  055%=      5-min Rain = 0
KES1 200923Z 18004KT 26/16 A2986 RMK A01 T02600163  RH  055%=      5-min Rain = 0
KES1 200924Z 18004KT 26/16 A2986 RMK A01 T02600163  RH  055%=      5-min Rain = 0
KES1 200925Z 18004KT 26/16 A2986 RMK A01 T02590163  RH  055%=      5-min Rain = 0
KES1 200926Z 18004KT 26/16 A2986 RMK A01 T02590163  RH  055%=      5-min Rain = 0
KES1 200927Z 18004KT 26/16 A2986 RMK A01 T02590163  RH  055%=      5-min Rain = 0
KES1 200928Z 18005KT 26/16 A2986 RMK A01 T02590163  RH  055%=      5-min Rain = 0
KES1 200929Z 18004KT 26/16 A2986 RMK A01 T02580163  RH  055%=      5-min Rain = 0
KES1 200930Z 18005KT 26/16 A2986 RMK A01 T02580163  RH  056%=      5-min Rain = 0
KES1 200931Z 18005KT 26/16 A2986 RMK A01 T02580163  RH  056%=      5-min Rain = 0
KES1 200932Z 18005KT 26/16 A2986 RMK A01 T02580163  RH  056%=      5-min Rain = 0
KES1 200933Z 19005KT 26/16 A2986 RMK A01 T02580163  RH  056%=      5-min Rain = 0
KES1 200934Z 18005KT 26/16 A2986 RMK A01 T02580163  RH  056%=      5-min Rain = 0
KES1 200935Z 18005KT 26/16 A2986 RMK A01 T02570163  RH  056%=      5-min Rain = 0
KES1 200936Z 18006KT 26/16 A2986 RMK A01 T02570162  RH  056%=      5-min Rain = 0
KES1 200937Z 18006KT 26/16 A2986 RMK A01 T02570163  RH  056%=      5-min Rain = 0
KES1 200938Z 18005KT 26/16 A2986 RMK A01 T02570163  RH  056%=      5-min Rain = 0
KES1 200939Z 18005KT 26/16 A2986 RMK A01 T02570163  RH  056%=      5-min Rain = 0
KES1 200940Z 17006KT 26/16 A2986 RMK A01 T02570163  RH  056%=      5-min Rain = 0
KES1 200941Z 17005KT 26/16 A2986 RMK A01 T02560163  RH  056%=      5-min Rain = 0
KES1 200942Z 17005KT 26/16 A2986 RMK A01 T02560163  RH  056%=      5-min Rain = 0
KES1 200943Z 18006KT 26/16 A2986 RMK A01 T02550163  RH  056%=      5-min Rain = 0
KES1 200944Z 18006KT 26/16 A2986 RMK A01 T02550163  RH  056%=      5-min Rain = 0
KES1 200945Z 18006KT 26/16 A2986 RMK A01 T02550162  RH  056%=      5-min Rain = 0
KES1 200946Z 18005KT 26/16 A2986 RMK A01 T02560162  RH  056%=      5-min Rain = 0
KES1 200947Z 18005KT 26/16 A2987 RMK A01 T02560162  RH  056%=      5-min Rain = 0
KES1 200948Z 18005KT 26/16 A2987 RMK A01 T02560163  RH  056%=      5-min Rain = 0
KES1 200949Z 18005KT 26/16 A2987 RMK A01 T02560163  RH  056%=      5-min Rain = 0
KES1 200950Z 18005KT 26/16 A2987 RMK A01 T02560162  RH  056%=      5-min Rain = 0
KES1 200951Z 18005KT 26/16 A2987 RMK A01 T02560162  RH  056%=      5-min Rain = 0
KES1 200952Z 18005KT 26/16 A2987 RMK A01 T02560162  RH  056%=      5-min Rain = 0
KES1 200953Z 18005KT 26/16 A2987 RMK A01 T02570162  RH  056%=      5-min Rain = 0
KES1 200954Z 18005KT 26/16 A2987 RMK A01 T02580163  RH  056%=      5-min Rain = 0
KES1 200955Z 18004KT 26/16 A2986 RMK A01 T02580163  RH  056%=      5-min Rain = 0
KES1 200956Z 18006KT 26/16 A2986 RMK A01 T02580163  RH  056%=      5-min Rain = 0
KES1 200957Z 18005KT 26/16 A2986 RMK A01 T02570163  RH  056%=      5-min Rain = 0
KES1 200958Z 18005KT 26/16 A2986 RMK A01 T02570163  RH  056%=      5-min Rain = 0
KES1 200959Z 18005KT 26/16 A2986 RMK A01 T02570163  RH  056%=      5-min Rain = 0
KES1 201000Z 18006KT 26/16 A2986 RMK A01 T02570163  RH  056%=      5-min Rain = 0
KES1 201001Z 18005KT 26/16 A2986 RMK A01 T02570163  RH  056%=      5-min Rain = 0
KES1 201002Z 18005KT 26/16 A2986 RMK A01 T02570163  RH  056%=      5-min Rain = 0
KES1 201003Z 18005KT 26/16 A2986 RMK A01 T02570162  RH  056%=      5-min Rain = 0
KES1 201004Z 18005KT 26/16 A2986 RMK A01 T02560162  RH  056%=      5-min Rain = 0
KES1 201005Z 18005KT 26/16 A2986 RMK A01 T02560162  RH  056%=      5-min Rain = 0
KES1 201006Z 18005KT 26/16 A2986 RMK A01 T02560162  RH  056%=      5-min Rain = 0
KES1 201007Z 19005KT 26/16 A2986 RMK A01 T02560163  RH  056%=      5-min Rain = 0
KES1 201008Z 18005KT 26/16 A2987 RMK A01 T02560163  RH  056%=      5-min Rain = 0
KES1 201009Z 19005KT 26/16 A2986 RMK A01 T02560162  RH  056%=      5-min Rain = 0
KES1 201010Z 19006KT 26/16 A2986 RMK A01 T02550162  RH  056%=      5-min Rain = 0
KES1 201011Z 19006KT 26/16 A2986 RMK A01 T02550162  RH  056%=      5-min Rain = 0
KES1 201012Z 19006KT 26/16 A2986 RMK A01 T02560162  RH  056%=      5-min Rain = 0
KES1 201013Z 19005KT 26/16 A2986 RMK A01 T02560162  RH  056%=      5-min Rain = 0
KES1 201014Z 19005KT 26/16 A2986 RMK A01 T02560162  RH  056%=      5-min Rain = 0
KES1 201015Z 20005KT 26/16 A2986 RMK A01 T02560162  RH  056%=      5-min Rain = 0
KES1 201016Z 20005KT 26/16 A2986 RMK A01 T02560163  RH  056%=      5-min Rain = 0
KES1 201017Z 20004KT 26/16 A2986 RMK A01 T02550162  RH  057%=      5-min Rain = 0
KES1 201018Z 20005KT 25/16 A2986 RMK A01 T02540162  RH  057%=      5-min Rain = 0
KES1 201019Z 20005KT 25/16 A2986 RMK A01 T02530162  RH  057%=      5-min Rain = 0
KES1 201020Z 20005KT 25/16 A2986 RMK A01 T02530162  RH  057%=      5-min Rain = 0
KES1 201021Z 20006KT 25/16 A2986 RMK A01 T02530162  RH  057%=      5-min Rain = 0
KES1 201022Z 19004KT 25/16 A2986 RMK A01 T02530161  RH  057%=      5-min Rain = 0
KES1 201023Z 19006KT 25/16 A2986 RMK A01 T02530162  RH  057%=      5-min Rain = 0
KES1 201024Z 19005KT 25/16 A2986 RMK A01 T02530161  RH  057%=      5-min Rain = 0
KES1 201025Z 19005KT 25/16 A2986 RMK A01 T02530161  RH  057%=      5-min Rain = 0
KES1 201026Z 19005KT 25/16 A2986 RMK A01 T02530161  RH  057%=      5-min Rain = 0
KES1 201027Z 19005KT 25/16 A2986 RMK A01 T02530162  RH  057%=      5-min Rain = 0
KES1 201028Z 19005KT 25/16 A2987 RMK A01 T02530162  RH  057%=      5-min Rain = 0
KES1 201029Z 19005KT 25/16 A2987 RMK A01 T02520162  RH  057%=      5-min Rain = 0
KES1 201030Z 19006KT 25/16 A2987 RMK A01 T02530162  RH  057%=      5-min Rain = 0
KES1 201031Z 20005KT 25/16 A2987 RMK A01 T02530162  RH  057%=      5-min Rain = 0
KES1 201032Z 20004KT 25/16 A2987 RMK A01 T02520162  RH  057%=      5-min Rain = 0
KES1 201033Z 22004KT 25/16 A2987 RMK A01 T02510162  RH  058%=      5-min Rain = 0
KES1 201034Z 22003KT 25/16 A2987 RMK A01 T02500162  RH  058%=      5-min Rain = 0
KES1 201035Z 22003KT 25/16 A2987 RMK A01 T02490162  RH  058%=      5-min Rain = 0
KES1 201036Z 22003KT 25/16 A2987 RMK A01 T02480162  RH  059%=      5-min Rain = 0
KES1 201037Z 23002KT 25/16 A2987 RMK A01 T02470162  RH  059%=      5-min Rain = 0
KES1 201038Z 21003KT 25/16 A2987 RMK A01 T02460162  RH  060%=      5-min Rain = 0
KES1 201039Z 21003KT 24/16 A2987 RMK A01 T02440162  RH  060%=      5-min Rain = 0
KES1 201040Z 20003KT 24/16 A2987 RMK A01 T02430162  RH  060%=      5-min Rain = 0
KES1 201041Z 19004KT 24/16 A2987 RMK A01 T02420162  RH  061%=      5-min Rain = 0
KES1 201042Z 19004KT 24/16 A2987 RMK A01 T02410161  RH  061%=      5-min Rain = 0
KES1 201043Z 19004KT 24/16 A2987 RMK A01 T02420161  RH  061%=      5-min Rain = 0
KES1 201044Z 20004KT 24/16 A2987 RMK A01 T02430161  RH  060%=      5-min Rain = 0
KES1 201045Z 19004KT 24/16 A2987 RMK A01 T02440161  RH  060%=      5-min Rain = 0
KES1 201046Z 20003KT 24/16 A2987 RMK A01 T02440162  RH  060%=      5-min Rain = 0
KES1 201047Z 20004KT 24/16 A2987 RMK A01 T02440162  RH  060%=      5-min Rain = 0
KES1 201048Z 20003KT 24/16 A2987 RMK A01 T02440161  RH  060%=      5-min Rain = 0
KES1 201049Z 20003KT 24/16 A2987 RMK A01 T02440161  RH  060%=      5-min Rain = 0
KES1 201050Z 21004KT 24/16 A2987 RMK A01 T02440161  RH  060%=      5-min Rain = 0
KES1 201051Z 20003KT 24/16 A2987 RMK A01 T02440161  RH  060%=      5-min Rain = 0
KES1 201052Z 20003KT 24/16 A2987 RMK A01 T02440162  RH  060%=      5-min Rain = 0
KES1 201053Z 20003KT 24/16 A2987 RMK A01 T02440161  RH  060%=      5-min Rain = 0
KES1 201054Z 20003KT 24/16 A2987 RMK A01 T02440161  RH  060%=      5-min Rain = 0
KES1 201055Z 20003KT 24/16 A2987 RMK A01 T02440161  RH  060%=      5-min Rain = 0
KES1 201056Z 19004KT 24/16 A2987 RMK A01 T02440161  RH  060%=      5-min Rain = 0
KES1 201057Z 19004KT 24/16 A2987 RMK A01 T02440161  RH  060%=      5-min Rain = 0
KES1 201058Z 19004KT 24/16 A2987 RMK A01 T02440161  RH  060%=      5-min Rain = 0
KES1 201059Z 19004KT 24/16 A2987 RMK A01 T02440161  RH  060%=      5-min Rain = 0
KES1 201100Z 19004KT 24/16 A2987 RMK A01 T02440161  RH  060%=      5-min Rain = 0
KES1 201101Z 20005KT 25/16 A2987 RMK A01 T02450161  RH  059%=      5-min Rain = 0
KES1 201102Z 20005KT 25/16 A2987 RMK A01 T02450160  RH  059%=      5-min Rain = 0
KES1 201103Z 20004KT 25/16 A2987 RMK A01 T02450161  RH  059%=      5-min Rain = 0
KES1 201104Z 20004KT 25/16 A2987 RMK A01 T02460161  RH  059%=      5-min Rain = 0
KES1 201105Z 20005KT 25/16 A2987 RMK A01 T02460161  RH  059%=      5-min Rain = 0
KES1 201106Z 19005KT 25/16 A2987 RMK A01 T02460161  RH  059%=      5-min Rain = 0
KES1 201107Z 20005KT 25/16 A2987 RMK A01 T02460161  RH  059%=      5-min Rain = 0
KES1 201108Z 20005KT 25/16 A2987 RMK A01 T02450161  RH  059%=      5-min Rain = 0
KES1 201109Z 20005KT 25/16 A2987 RMK A01 T02460160  RH  059%=      5-min Rain = 0
KES1 201110Z 19004KT 25/16 A2987 RMK A01 T02470161  RH  059%=      5-min Rain = 0
KES1 201111Z 20005KT 25/16 A2987 RMK A01 T02470161  RH  059%=      5-min Rain = 0
KES1 201112Z 19005KT 25/16 A2987 RMK A01 T02460161  RH  059%=      5-min Rain = 0
KES1 201113Z 19005KT 25/16 A2987 RMK A01 T02460161  RH  059%=      5-min Rain = 0
KES1 201114Z 19006KT 25/16 A2987 RMK A01 T02460160  RH  059%=      5-min Rain = 0
KES1 201115Z 19005KT 25/16 A2987 RMK A01 T02460160  RH  059%=      5-min Rain = 0
KES1 201116Z 20006KT 25/16 A2987 RMK A01 T02460160  RH  059%=      5-min Rain = 0
KES1 201117Z 19006KT 25/16 A2987 RMK A01 T02470161  RH  059%=      5-min Rain = 0
KES1 201118Z 19005KT 25/16 A2987 RMK A01 T02470161  RH  059%=      5-min Rain = 0
KES1 201119Z 19006KT 25/16 A2987 RMK A01 T02470161  RH  059%=      5-min Rain = 0
KES1 201120Z 19005KT 25/16 A2987 RMK A01 T02460161  RH  059%=      5-min Rain = 0
KES1 201121Z 19006KT 25/16 A2987 RMK A01 T02460161  RH  059%=      5-min Rain = 0
KES1 201122Z 19005KT 25/16 A2987 RMK A01 T02460161  RH  059%=      5-min Rain = 0
KES1 201123Z 19006KT 25/16 A2987 RMK A01 T02460161  RH  059%=      5-min Rain = 0
KES1 201124Z 19006KT 25/16 A2987 RMK A01 T02460161  RH  059%=      5-min Rain = 0
KES1 201125Z 19006KT 25/16 A2988 RMK A01 T02460161  RH  059%=      5-min Rain = 0
KES1 201126Z 19006KT 25/16 A2988 RMK A01 T02470161  RH  059%=      5-min Rain = 0
KES1 201127Z 19006KT 25/16 A2988 RMK A01 T02470161  RH  059%=      5-min Rain = 0
KES1 201128Z 19005KT 25/16 A2988 RMK A01 T02470161  RH  059%=      5-min Rain = 0
KES1 201129Z 19006KT 25/16 A2988 RMK A01 T02470161  RH  059%=      5-min Rain = 0
KES1 201130Z 19006KT 25/16 A2988 RMK A01 T02460161  RH  059%=      5-min Rain = 0
KES1 201131Z 18006KT 25/16 A2988 RMK A01 T02460161  RH  059%=      5-min Rain = 0
KES1 201132Z 19006KT 25/16 A2988 RMK A01 T02460161  RH  059%=      5-min Rain = 0
KES1 201133Z 19006KT 25/16 A2988 RMK A01 T02470161  RH  059%=      5-min Rain = 0
KES1 201134Z 18006KT 25/16 A2988 RMK A01 T02460161  RH  059%=      5-min Rain = 0
KES1 201135Z 18006KT 25/16 A2988 RMK A01 T02470161  RH  059%=      5-min Rain = 0
KES1 201136Z 18007KT 25/16 A2988 RMK A01 T02470161  RH  059%=      5-min Rain = 0
KES1 201137Z 18006KT 25/16 A2988 RMK A01 T02470161  RH  059%=      5-min Rain = 0
KES1 201138Z 18006KT 25/16 A2988 RMK A01 T02480162  RH  059%=      5-min Rain = 0
KES1 201139Z 18006KT 25/16 A2988 RMK A01 T02480162  RH  059%=      5-min Rain = 0
KES1 201140Z 18007KT 25/16 A2988 RMK A01 T02470162  RH  059%=      5-min Rain = 0
KES1 201141Z 18008KT 25/16 A2988 RMK A01 T02470162  RH  059%=      5-min Rain = 0
KES1 201142Z 18007KT 25/16 A2988 RMK A01 T02480162  RH  059%=      5-min Rain = 0
KES1 201143Z 18006KT 25/16 A2988 RMK A01 T02480162  RH  059%=      5-min Rain = 0
KES1 201144Z 18006KT 25/16 A2988 RMK A01 T02470162  RH  059%=      5-min Rain = 0
KES1 201145Z 18007KT 25/16 A2988 RMK A01 T02470162  RH  059%=      5-min Rain = 0
KES1 201146Z 18006KT 25/16 A2988 RMK A01 T02470162  RH  059%=      5-min Rain = 0
KES1 201147Z 18006KT 25/16 A2988 RMK A01 T02470162  RH  059%=      5-min Rain = 0
KES1 201148Z 18005KT 25/16 A2988 RMK A01 T02470162  RH  059%=      5-min Rain = 0
KES1 201149Z 17006KT 25/16 A2988 RMK A01 T02470162  RH  059%=      5-min Rain = 0
KES1 201150Z 18006KT 25/16 A2988 RMK A01 T02470163  RH  059%=      5-min Rain = 0
KES1 201151Z 18006KT 25/16 A2988 RMK A01 T02470163  RH  059%=      5-min Rain = 0
KES1 201152Z 18007KT 25/16 A2988 RMK A01 T02470162  RH  059%=      5-min Rain = 0
KES1 201153Z 18006KT 25/16 A2988 RMK A01 T02470163  RH  059%=      5-min Rain = 0
KES1 201154Z 18006KT 25/16 A2988 RMK A01 T02470162  RH  059%=      5-min Rain = 0
KES1 201155Z 18006KT 25/16 A2988 RMK A01 T02470163  RH  059%=      5-min Rain = 0
KES1 201156Z 18005KT 25/16 A2988 RMK A01 T02470163  RH  060%=      5-min Rain = 0
KES1 201157Z 18006KT 25/16 A2988 RMK A01 T02460163  RH  060%=      5-min Rain = 0
KES1 201158Z 18007KT 25/16 A2988 RMK A01 T02460163  RH  060%=      5-min Rain = 0
KES1 201159Z 18006KT 25/16 A2988 RMK A01 T02460163  RH  060%=      5-min Rain = 0
KES1 201200Z 18007KT 25/16 A2988 RMK A01 T02460163  RH  060%=      5-min Rain = 0
KES1 201201Z 18006KT 25/16 A2988 RMK A01 T02460163  RH  060%=      5-min Rain = 0
KES1 201202Z 18008KT 25/16 A2988 RMK A01 T02470163  RH  060%=      5-min Rain = 0
KES1 201203Z 18007KT 25/16 A2988 RMK A01 T02470164  RH  060%=      5-min Rain = 0
KES1 201204Z 18007KT 25/16 A2988 RMK A01 T02470163  RH  060%=      5-min Rain = 0
KES1 201205Z 18007KT 25/16 A2988 RMK A01 T02480164  RH  060%=      5-min Rain = 0
KES1 201206Z 18007KT 25/16 A2988 RMK A01 T02480164  RH  060%=      5-min Rain = 0
KES1 201207Z 18007KT 25/16 A2988 RMK A01 T02480164  RH  060%=      5-min Rain = 0
KES1 201208Z 18007KT 25/17 A2988 RMK A01 T02480165  RH  060%=      5-min Rain = 0
KES1 201209Z 18007KT 25/17 A2988 RMK A01 T02480165  RH  060%=      5-min Rain = 0
KES1 201210Z 18007KT 25/17 A2988 RMK A01 T02480165  RH  060%=      5-min Rain = 0
KES1 201211Z 18007KT 25/17 A2988 RMK A01 T02490165  RH  060%=      5-min Rain = 0
KES1 201212Z 18007KT 25/17 A2988 RMK A01 T02490165  RH  060%=      5-min Rain = 0
KES1 201213Z 17007KT 25/17 A2988 RMK A01 T02490166  RH  060%=      5-min Rain = 0
KES1 201214Z 18007KT 25/17 A2988 RMK A01 T02490166  RH  060%=      5-min Rain = 0
KES1 201215Z 18007KT 25/17 A2988 RMK A01 T02490166  RH  060%=      5-min Rain = 0
KES1 201216Z 17006KT 25/17 A2988 RMK A01 T02500166  RH  060%=      5-min Rain = 0
KES1 201217Z 18007KT 25/17 A2988 RMK A01 T02500166  RH  060%=      5-min Rain = 0
KES1 201218Z 18007KT 25/17 A2988 RMK A01 T02510167  RH  060%=      5-min Rain = 0
KES1 201219Z 17006KT 25/17 A2988 RMK A01 T02500167  RH  060%=      5-min Rain = 0
KES1 201220Z 18006KT 25/17 A2988 RMK A01 T02500167  RH  060%=      5-min Rain = 0
KES1 201221Z 17007KT 25/17 A2988 RMK A01 T02510168  RH  060%=      5-min Rain = 0
KES1 201222Z 17007KT 25/17 A2988 RMK A01 T02500167  RH  060%=      5-min Rain = 0
KES1 201223Z 17007KT 25/17 A2988 RMK A01 T02500167  RH  060%=      5-min Rain = 0
KES1 201224Z 17007KT 25/17 A2988 RMK A01 T02510168  RH  060%=      5-min Rain = 0
KES1 201225Z 18007KT 25/17 A2988 RMK A01 T02510168  RH  060%=      5-min Rain = 0
KES1 201226Z 17007KT 25/17 A2988 RMK A01 T02510168  RH  060%=      5-min Rain = 0
KES1 201227Z 17007KT 25/17 A2988 RMK A01 T02510169  RH  060%=      5-min Rain = 0
KES1 201228Z 17007KT 25/17 A2988 RMK A01 T02520170  RH  060%=      5-min Rain = 0
KES1 201229Z 17008KT 25/17 A2988 RMK A01 T02520170  RH  060%=      5-min Rain = 0
KES1 201230Z 17006KT 25/17 A2988 RMK A01 T02520170  RH  060%=      5-min Rain = 0
KES1 201231Z 18006KT 25/17 A2988 RMK A01 T02530170  RH  060%=      5-min Rain = 0
KES1 201232Z 18006KT 25/17 A2988 RMK A01 T02530171  RH  060%=      5-min Rain = 0
KES1 201233Z 17008KT 25/17 A2988 RMK A01 T02540171  RH  060%=      5-min Rain = 0
KES1 201234Z 17007KT 25/17 A2988 RMK A01 T02540172  RH  060%=      5-min Rain = 0
KES1 201235Z 18006KT 25/17 A2988 RMK A01 T02540172  RH  060%=      5-min Rain = 0
KES1 201236Z 18008KT 26/17 A2988 RMK A01 T02550172  RH  060%=      5-min Rain = 0
KES1 201237Z 17007G12KT 26/17 A2988 RMK A01 T02560173  RH  060%=      5-min Rain = 0
KES1 201238Z 17008KT 26/17 A2988 RMK A01 T02560173  RH  060%=      5-min Rain = 0
KES1 201239Z 18007KT 26/17 A2988 RMK A01 T02570174  RH  060%=      5-min Rain = 0
KES1 201240Z 18009KT 26/17 A2988 RMK A01 T02580174  RH  060%=      5-min Rain = 0
KES1 201241Z 18007KT 26/18 A2988 RMK A01 T02590175  RH  060%=      5-min Rain = 0
KES1 201242Z 17007KT 26/18 A2988 RMK A01 T02600175  RH  060%=      5-min Rain = 0
KES1 201243Z 17008G13KT 26/18 A2989 RMK A01 T02610175  RH  059%=      5-min Rain = 0
KES1 201244Z 17007KT 26/18 A2988 RMK A01 T02610175  RH  059%=      5-min Rain = 0
KES1 201245Z 17009KT 26/18 A2989 RMK A01 T02610176  RH  059%=      5-min Rain = 0
KES1 201246Z 17009KT 26/18 A2989 RMK A01 T02620176  RH  059%=      5-min Rain = 0
KES1 201247Z 17007KT 26/18 A2989 RMK A01 T02630177  RH  059%=      5-min Rain = 0
KES1 201248Z 17008KT 26/18 A2989 RMK A01 T02630177  RH  059%=      5-min Rain = 0
KES1 201249Z 17006KT 26/18 A2989 RMK A01 T02640178  RH  059%=      5-min Rain = 0
KES1 201250Z 18008KT 27/18 A2989 RMK A01 T02650178  RH  059%=      5-min Rain = 0
KES1 201251Z 17007KT 27/18 A2989 RMK A01 T02650178  RH  059%=      5-min Rain = 0
KES1 201252Z 17007KT 27/18 A2989 RMK A01 T02650178  RH  059%=      5-min Rain = 0
KES1 201253Z 17008KT 27/18 A2989 RMK A01 T02660178  RH  059%=      5-min Rain = 0
KES1 201254Z 17009KT 27/18 A2989 RMK A01 T02670179  RH  059%=      5-min Rain = 0
KES1 201255Z 17009KT 27/18 A2989 RMK A01 T02670178  RH  058%=      5-min Rain = 0
KES1 201256Z 17009KT 27/18 A2989 RMK A01 T02670179  RH  058%=      5-min Rain = 0
KES1 201257Z 17007KT 27/18 A2989 RMK A01 T02680179  RH  058%=      5-min Rain = 0
KES1 201258Z 17008KT 27/18 A2989 RMK A01 T02680180  RH  058%=      5-min Rain = 0
KES1 201259Z 17010KT 27/18 A2989 RMK A01 T02690180  RH  058%=      5-min Rain = 0
KES1 201300Z 17009KT 27/18 A2989 RMK A01 T02690180  RH  058%=      5-min Rain = 0
KES1 201301Z 18008KT 27/18 A2989 RMK A01 T02700181  RH  058%=      5-min Rain = 0
KES1 201302Z 18009KT 27/18 A2989 RMK A01 T02710181  RH  058%=      5-min Rain = 0
KES1 201303Z 18008KT 27/18 A2989 RMK A01 T02720181  RH  058%=      5-min Rain = 0
KES1 201304Z 18010KT 27/18 A2989 RMK A01 T02710181  RH  058%=      5-min Rain = 0
KES1 201305Z 17007KT 27/18 A2989 RMK A01 T02710181  RH  058%=      5-min Rain = 0
KES1 201306Z 18011KT 27/18 A2989 RMK A01 T02720182  RH  058%=      5-min Rain = 0
KES1 201307Z 17008KT 27/18 A2989 RMK A01 T02730182  RH  058%=      5-min Rain = 0
KES1 201308Z 18009G15KT 27/18 A2989 RMK A01 T02730183  RH  058%=      5-min Rain = 0
KES1 201309Z 18010KT 27/18 A2989 RMK A01 T02730183  RH  058%=      5-min Rain = 0
KES1 201310Z 17012KT 27/18 A2989 RMK A01 T02740183  RH  058%=      5-min Rain = 0
KES1 201311Z 17010KT 27/18 A2989 RMK A01 T02740183  RH  058%=      5-min Rain = 0
KES1 201312Z 18010KT 28/18 A2989 RMK A01 T02750184  RH  058%=      5-min Rain = 0
KES1 201313Z 18007G12KT 28/19 A2989 RMK A01 T02750185  RH  058%=      5-min Rain = 0
KES1 201314Z 17009KT 28/19 A2989 RMK A01 T02760185  RH  058%=      5-min Rain = 0
KES1 201315Z 18011KT 28/19 A2989 RMK A01 T02770185  RH  057%=      5-min Rain = 0
KES1 201316Z 17012KT 28/19 A2989 RMK A01 T02770185  RH  057%=      5-min Rain = 0
KES1 201317Z 18009KT 28/19 A2988 RMK A01 T02770185  RH  057%=      5-min Rain = 0
KES1 201318Z 18010KT 28/19 A2988 RMK A01 T02770186  RH  058%=      5-min Rain = 0
KES1 201319Z 18012KT 28/19 A2988 RMK A01 T02770186  RH  058%=      5-min Rain = 0
KES1 201320Z 18011G16KT 28/19 A2988 RMK A01 T02770186  RH  057%=      5-min Rain = 0
KES1 201321Z 18009KT 28/19 A2989 RMK A01 T02770186  RH  057%=      5-min Rain = 0
KES1 201322Z 18011KT 28/19 A2989 RMK A01 T02770186  RH  058%=      5-min Rain = 0
KES1 201323Z 17010KT 28/19 A2989 RMK A01 T02770186  RH  058%=      5-min Rain = 0
KES1 201324Z 18010KT 28/19 A2989 RMK A01 T02780187  RH  058%=      5-min Rain = 0
KES1 201325Z 18009KT 28/19 A2989 RMK A01 T02780187  RH  058%=      5-min Rain = 0
KES1 201326Z 19009G15KT 28/19 A2989 RMK A01 T02780188  RH  058%=      5-min Rain = 0
KES1 201327Z 19011KT 28/19 A2989 RMK A01 T02790188  RH  058%=      5-min Rain = 0
KES1 201328Z 18011G17KT 28/19 A2989 RMK A01 T02790188  RH  058%=      5-min Rain = 0
KES1 201329Z 18014KT 28/19 A2989 RMK A01 T02790188  RH  058%=      5-min Rain = 0
KES1 201330Z 18012KT 28/19 A2989 RMK A01 T02790188  RH  058%=      5-min Rain = 0
KES1 201331Z 18012KT 28/19 A2989 RMK A01 T02790189  RH  058%=      5-min Rain = 0
KES1 201332Z 19007KT 28/19 A2989 RMK A01 T02780189  RH  058%=      5-min Rain = 0
KES1 201333Z 18010KT 28/19 A2989 RMK A01 T02800190  RH  058%=      5-min Rain = 0
KES1 201334Z 19010KT 28/19 A2989 RMK A01 T02810189  RH  058%=      5-min Rain = 0
KES1 201335Z 19008KT 28/19 A2989 RMK A01 T02810190  RH  058%=      5-min Rain = 0
KES1 201336Z 19012KT 28/19 A2989 RMK A01 T02810190  RH  058%=      5-min Rain = 0
KES1 201337Z 19015KT 28/19 A2989 RMK A01 T02810190  RH  057%=      5-min Rain = 0
KES1 201338Z 19014KT 28/19 A2989 RMK A01 T02810190  RH  058%=      5-min Rain = 0
KES1 201339Z 18013KT 28/19 A2989 RMK A01 T02810190  RH  058%=      5-min Rain = 0
KES1 201340Z 19014KT 28/19 A2989 RMK A01 T02810190  RH  058%=      5-min Rain = 0
KES1 201341Z 19010KT 28/19 A2989 RMK A01 T02810191  RH  058%=      5-min Rain = 0
KES1 201342Z 20011KT 28/19 A2989 RMK A01 T02810191  RH  058%=      5-min Rain = 0
KES1 201343Z 20010G17KT 28/19 A2989 RMK A01 T02820191  RH  058%=      5-min Rain = 0
KES1 201344Z 20014KT 28/19 A2989 RMK A01 T02830191  RH  058%=      5-min Rain = 0
KES1 201345Z 19014KT 28/19 A2989 RMK A01 T02830192  RH  058%=      5-min Rain = 0
KES1 201346Z 19011KT 28/19 A2989 RMK A01 T02830192  RH  058%=      5-min Rain = 0
KES1 201347Z 19014G20KT 28/19 A2989 RMK A01 T02820192  RH  058%=      5-min Rain = 0
KES1 201348Z 20014G19KT 28/19 A2989 RMK A01 T02830191  RH  058%=      5-min Rain = 0
KES1 201349Z 19012G17KT 28/19 A2989 RMK A01 T02830192  RH  058%=      5-min Rain = 0
KES1 201350Z 19016KT 28/19 A2989 RMK A01 T02830192  RH  058%=      5-min Rain = 0
KES1 201351Z 20014KT 28/19 A2989 RMK A01 T02830191  RH  057%=      5-min Rain = 0
KES1 201352Z 19014G19KT 28/19 A2989 RMK A01 T02830192  RH  058%=      5-min Rain = 0
KES1 201353Z 19013KT 28/19 A2989 RMK A01 T02840192  RH  057%=      5-min Rain = 0
KES1 201354Z 19015G24KT 29/19 A2989 RMK A01 T02860193  RH  057%=      5-min Rain = 0
KES1 201355Z 20015G23KT 29/19 A2989 RMK A01 T02860193  RH  057%=      5-min Rain = 0
KES1 201356Z 19012KT 29/19 A2989 RMK A01 T02860193  RH  057%=      5-min Rain = 0
KES1 201357Z 19015G21KT 29/19 A2989 RMK A01 T02860193  RH  057%=      5-min Rain = 0
KES1 201358Z 19015KT 29/19 A2989 RMK A01 T02870193  RH  057%=      5-min Rain = 0
KES1 201359Z 19015KT 29/19 A2989 RMK A01 T02870193  RH  057%=      5-min Rain = 0
KES1 201400Z 19015KT 29/19 A2989 RMK A01 T02860193  RH  057%=      5-min Rain = 0
KES1 201401Z 20017KT 29/19 A2989 RMK A01 T02860193  RH  057%=      5-min Rain = 0
KES1 201402Z 20013KT 29/19 A2989 RMK A01 T02860193  RH  057%=      5-min Rain = 0
KES1 201403Z 20011KT 29/19 A2989 RMK A01 T02860194  RH  057%=      5-min Rain = 0
KES1 201404Z 21014G19KT 29/19 A2989 RMK A01 T02880194  RH  057%=      5-min Rain = 0
KES1 201405Z 20014KT 29/19 A2989 RMK A01 T02880194  RH  057%=      5-min Rain = 0
KES1 201406Z 20009KT 29/20 A2989 RMK A01 T02890195  RH  057%=      5-min Rain = 0
KES1 201407Z 21010KT 29/20 A2989 RMK A01 T02900196  RH  057%=      5-min Rain = 0
KES1 201408Z 20011KT 29/20 A2989 RMK A01 T02920195  RH  056%=      5-min Rain = 0
KES1 201409Z 20009KT 29/20 A2989 RMK A01 T02920196  RH  056%=      5-min Rain = 0
KES1 201410Z 19009G14KT 29/20 A2989 RMK A01 T02930197  RH  056%=      5-min Rain = 0
KES1 201411Z 20015KT 30/20 A2989 RMK A01 T02950197  RH  056%=      5-min Rain = 0
KES1 201412Z 19014KT 30/20 A2989 RMK A01 T02950195  RH  055%=      5-min Rain = 0
KES1 201413Z 19014KT 29/20 A2989 RMK A01 T02940195  RH  055%=      5-min Rain = 0
KES1 201414Z 21014G19KT 29/20 A2989 RMK A01 T02930195  RH  056%=      5-min Rain = 0
KES1 201415Z 21013KT 29/20 A2989 RMK A01 T02930196  RH  056%=      5-min Rain = 0
KES1 201416Z 19012G18KT 29/20 A2989 RMK A01 T02930195  RH  056%=      5-min Rain = 0
KES1 201417Z 20015KT 29/20 A2989 RMK A01 T02940195  RH  055%=      5-min Rain = 0
KES1 201418Z 19013G18KT 29/20 A2989 RMK A01 T02940195  RH  055%=      5-min Rain = 0
KES1 201419Z 20016G21KT 29/20 A2989 RMK A01 T02940195  RH  055%=      5-min Rain = 0
KES1 201420Z 21015KT 29/20 A2989 RMK A01 T02940195  RH  055%=      5-min Rain = 0
KES1 201421Z 20012KT 29/20 A2989 RMK A01 T02940195  RH  055%=      5-min Rain = 0
KES1 201422Z 21013KT 29/20 A2989 RMK A01 T02940196  RH  056%=      5-min Rain = 0
KES1 201423Z 20016KT 30/20 A2989 RMK A01 T02950195  RH  055%=      5-min Rain = 0
KES1 201424Z 20014KT 30/20 A2989 RMK A01 T02950196  RH  055%=      5-min Rain = 0
KES1 201425Z 20014KT 30/20 A2989 RMK A01 T02950195  RH  055%=      5-min Rain = 0
KES1 201426Z 19016KT 30/20 A2989 RMK A01 T02950195  RH  055%=      5-min Rain = 0
KES1 201427Z 19016KT 30/19 A2989 RMK A01 T02950194  RH  054%=      5-min Rain = 0
KES1 201428Z 19014KT 30/20 A2989 RMK A01 T02950195  RH  055%=      5-min Rain = 0
KES1 201429Z 19014KT 30/20 A2989 RMK A01 T02950195  RH  055%=      5-min Rain = 0
KES1 201430Z 20014G19KT 30/20 A2989 RMK A01 T02960195  RH  055%=      5-min Rain = 0
KES1 201431Z 20014G19KT 30/20 A2989 RMK A01 T02970196  RH  055%=      5-min Rain = 0
KES1 201432Z 20014KT 30/20 A2989 RMK A01 T02970195  RH  054%=      5-min Rain = 0
KES1 201433Z 20015G20KT 30/20 A2989 RMK A01 T02980195  RH  054%=      5-min Rain = 0
KES1 201434Z 20017KT 30/20 A2989 RMK A01 T02970195  RH  054%=      5-min Rain = 0
KES1 201435Z 20011KT 30/20 A2989 RMK A01 T02970195  RH  054%=      5-min Rain = 0
KES1 201436Z 21015KT 30/20 A2989 RMK A01 T02990196  RH  054%=      5-min Rain = 0
KES1 201437Z 21011KT 30/20 A2989 RMK A01 T02990196  RH  054%=      5-min Rain = 0
KES1 201438Z 21014KT 30/20 A2989 RMK A01 T03000196  RH  054%=      5-min Rain = 0
KES1 201439Z 19012KT 30/20 A2989 RMK A01 T03000196  RH  054%=      5-min Rain = 0
KES1 201440Z 19009KT 30/20 A2989 RMK A01 T03010198  RH  054%=      5-min Rain = 0
KES1 201441Z 20009G14KT 30/20 A2989 RMK A01 T03040199  RH  054%=      5-min Rain = 0
KES1 201442Z 20012KT 31/20 A2989 RMK A01 T03060198  RH  052%=      5-min Rain = 0
KES1 201443Z 20014KT 31/20 A2989 RMK A01 T03060198  RH  052%=      5-min Rain = 0
KES1 201444Z 19012KT 31/20 A2989 RMK A01 T03050197  RH  052%=      5-min Rain = 0
KES1 201445Z 19014KT 31/20 A2989 RMK A01 T03050196  RH  052%=      5-min Rain = 0
KES1 201446Z 19012KT 30/20 A2989 RMK A01 T03040196  RH  053%=      5-min Rain = 0
KES1 201447Z 21012KT 31/20 A2989 RMK A01 T03050197  RH  052%=      5-min Rain = 0
KES1 201448Z 19014KT 31/20 A2989 RMK A01 T03050196  RH  052%=      5-min Rain = 0
KES1 201449Z 18014KT 31/20 A2988 RMK A01 T03050197  RH  052%=      5-min Rain = 0
KES1 201450Z 18014KT 31/20 A2988 RMK A01 T03060196  RH  052%=      5-min Rain = 0
KES1 201451Z 20015KT 31/20 A2988 RMK A01 T03070196  RH  052%=      5-min Rain = 0
KES1 201452Z 20012KT 31/20 A2989 RMK A01 T03060196  RH  052%=      5-min Rain = 0
KES1 201453Z 20012KT 31/20 A2989 RMK A01 T03050197  RH  052%=      5-min Rain = 0
KES1 201454Z 20012G17KT 31/20 A2989 RMK A01 T03050197  RH  052%=      5-min Rain = 0
KES1 201455Z 19016KT 31/20 A2988 RMK A01 T03070197  RH  052%=      5-min Rain = 0
KES1 201456Z 20011G16KT 31/20 A2989 RMK A01 T03070197  RH  052%=      5-min Rain = 0
KES1 201457Z 21011KT 31/20 A2989 RMK A01 T03070198  RH  052%=      5-min Rain = 0
KES1 201458Z 21012KT 31/20 A2989 RMK A01 T03080198  RH  052%=      5-min Rain = 0
KES1 201459Z 19009KT 31/20 A2989 RMK A01 T03080198  RH  052%=      5-min Rain = 0
KES1 201500Z 19013KT 31/20 A2989 RMK A01 T03120200  RH  051%=      5-min Rain = 0
KES1 201501Z 18013KT 31/20 A2989 RMK A01 T03130197  RH  050%=      5-min Rain = 0
KES1 201502Z 17010KT 31/20 A2989 RMK A01 T03120198  RH  051%=      5-min Rain = 0
KES1 201503Z 18011KT 31/20 A2989 RMK A01 T03120199  RH  051%=      5-min Rain = 0
KES1 201504Z 18010KT 31/20 A2989 RMK A01 T03140199  RH  051%=      5-min Rain = 0
KES1 201505Z 17012KT 32/20 A2988 RMK A01 T03160199  RH  050%=      5-min Rain = 0
KES1 201506Z 18013KT 32/20 A2989 RMK A01 T03150199  RH  050%=      5-min Rain = 0
KES1 201507Z 19011KT 32/20 A2989 RMK A01 T03150199  RH  050%=      5-min Rain = 0
KES1 201508Z 20014KT 31/20 A2989 RMK A01 T03140198  RH  050%=      5-min Rain = 0
KES1 201509Z 20012KT 31/20 A2989 RMK A01 T03130197  RH  050%=      5-min Rain = 0
KES1 201510Z 20012KT 31/20 A2989 RMK A01 T03120197  RH  051%=      5-min Rain = 0
KES1 201511Z 19012G17KT 31/20 A2989 RMK A01 T03110197  RH  051%=      5-min Rain = 0
KES1 201512Z 19014KT 31/20 A2989 RMK A01 T03120196  RH  050%=      5-min Rain = 0
KES1 201513Z 20011KT 31/20 A2989 RMK A01 T03120197  RH  050%=      5-min Rain = 0
KES1 201514Z 21013KT 31/20 A2989 RMK A01 T03130197  RH  050%=      5-min Rain = 0
KES1 201515Z 20013KT 31/20 A2988 RMK A01 T03130197  RH  050%=      5-min Rain = 0
KES1 201516Z 20011KT 31/20 A2988 RMK A01 T03120198  RH  051%=      5-min Rain = 0
KES1 201517Z 17010KT 31/20 A2988 RMK A01 T03140200  RH  051%=      5-min Rain = 0
KES1 201518Z 18011KT 32/20 A2988 RMK A01 T03160200  RH  050%=      5-min Rain = 0
KES1 201519Z 18012KT 32/20 A2988 RMK A01 T03180200  RH  050%=      5-min Rain = 0
KES1 201520Z 17010KT 32/20 A2988 RMK A01 T03190200  RH  049%=      5-min Rain = 0
KES1 201521Z 18009G14KT 32/20 A2988 RMK A01 T03200201  RH  049%=      5-min Rain = 0
KES1 201522Z 19011KT 32/20 A2988 RMK A01 T03210200  RH  049%=      5-min Rain = 0
KES1 201523Z 19007KT 32/20 A2988 RMK A01 T03200203  RH  050%=      5-min Rain = 0
KES1 201524Z 19008G15KT 32/20 A2988 RMK A01 T03220202  RH  049%=      5-min Rain = 0
KES1 201525Z 18012KT 32/20 A2988 RMK A01 T03230202  RH  049%=      5-min Rain = 0
KES1 201526Z 18012KT 32/20 A2988 RMK A01 T03230200  RH  048%=      5-min Rain = 0
KES1 201527Z 18011KT 32/20 A2988 RMK A01 T03210201  RH  049%=      5-min Rain = 0
KES1 201528Z 18012KT 32/20 A2988 RMK A01 T03210201  RH  049%=      5-min Rain = 0
KES1 201529Z 18011KT 32/20 A2988 RMK A01 T03220200  RH  049%=      5-min Rain = 0
KES1 201530Z 18008KT 32/20 A2988 RMK A01 T03210201  RH  049%=      5-min Rain = 0
KES1 201531Z 17009KT 32/20 A2988 RMK A01 T03220202  RH  049%=      5-min Rain = 0
KES1 201532Z 18007KT 32/20 A2988 RMK A01 T03240204  RH  049%=      5-min Rain = 0
KES1 201533Z 19008KT 33/20 A2988 RMK A01 T03270203  RH  048%=      5-min Rain = 0
KES1 201534Z 19008KT 33/20 A2988 RMK A01 T03270204  RH  048%=      5-min Rain = 0
KES1 201535Z 18010G15KT 33/20 A2988 RMK A01 T03270203  RH  048%=      5-min Rain = 0
KES1 201536Z 18010KT 33/20 A2988 RMK A01 T03270201  RH  048%=      5-min Rain = 0
KES1 201537Z 18010KT 33/20 A2988 RMK A01 T03250202  RH  048%=      5-min Rain = 0
KES1 201538Z 19013KT 33/20 A2988 RMK A01 T03250201  RH  048%=      5-min Rain = 0
KES1 201539Z 20014KT 32/20 A2988 RMK A01 T03240200  RH  048%=      5-min Rain = 0
KES1 201540Z 19013KT 32/20 A2988 RMK A01 T03210199  RH  049%=      5-min Rain = 0
KES1 201541Z 18008KT 32/20 A2988 RMK A01 T03190201  RH  049%=      5-min Rain = 0
KES1 201542Z 16010KT 32/20 A2988 RMK A01 T03220203  RH  049%=      5-min Rain = 0
KES1 201543Z 19008KT 32/20 A2988 RMK A01 T03240203  RH  049%=      5-min Rain = 0
KES1 201544Z 19010G20KT 33/20 A2988 RMK A01 T03260204  RH  049%=      5-min Rain = 0
KES1 201545Z 18016KT 33/20 A2988 RMK A01 T03270202  RH  048%=      5-min Rain = 0
KES1 201546Z 18011KT 33/20 A2988 RMK A01 T03250202  RH  048%=      5-min Rain = 0
KES1 201547Z 18012KT 32/20 A2988 RMK A01 T03240201  RH  048%=      5-min Rain = 0
KES1 201548Z 18008KT 33/20 A2988 RMK A01 T03250203  RH  049%=      5-min Rain = 0
KES1 201549Z 19009KT 33/20 A2988 RMK A01 T03260202  RH  048%=      5-min Rain = 0
KES1 201550Z 19010G16KT 33/20 A2988 RMK A01 T03250203  RH  049%=      5-min Rain = 0
KES1 201551Z 18013KT 32/20 A2988 RMK A01 T03240202  RH  048%=      5-min Rain = 0
KES1 201552Z 18012KT 32/20 A2988 RMK A01 T03240202  RH  049%=      5-min Rain = 0
KES1 201553Z 17010KT 33/20 A2988 RMK A01 T03250203  RH  049%=      5-min Rain = 0
KES1 201554Z 17010KT 33/21 A2988 RMK A01 T03280205  RH  048%=      5-min Rain = 0
KES1 201555Z 17009KT 33/20 A2988 RMK A01 T03300204  RH  048%=      5-min Rain = 0
KES1 201556Z 18008G17KT 33/21 A2988 RMK A01 T03300206  RH  048%=      5-min Rain = 0
KES1 201557Z 18010KT 33/21 A2988 RMK A01 T03320206  RH  048%=      5-min Rain = 0
KES1 201558Z 18015G20KT 33/20 A2988 RMK A01 T03320204  RH  047%=      5-min Rain = 0
KES1 201559Z 19015KT 33/20 A2988 RMK A01 T03290201  RH  047%=      5-min Rain = 0
KES1 201600Z 19013KT 33/20 A2988 RMK A01 T03260201  RH  048%=      5-min Rain = 0
KES1 201601Z 20010KT 33/20 A2988 RMK A01 T03250201  RH  048%=      5-min Rain = 0
KES1 201602Z 21010KT 33/20 A2988 RMK A01 T03260202  RH  048%=      5-min Rain = 0
KES1 201603Z 19011KT 33/20 A2988 RMK A01 T03270203  RH  048%=      5-min Rain = 0
KES1 201604Z 17012KT 33/20 A2988 RMK A01 T03280204  RH  048%=      5-min Rain = 0
KES1 201605Z 17011KT 33/20 A2988 RMK A01 T03290203  RH  048%=      5-min Rain = 0
KES1 201606Z 19012KT 33/20 A2988 RMK A01 T03280204  RH  048%=      5-min Rain = 0
KES1 201607Z 19011KT 33/20 A2988 RMK A01 T03300202  RH  047%=      5-min Rain = 0
KES1 201608Z 19013KT 33/20 A2988 RMK A01 T03290202  RH  047%=      5-min Rain = 0
KES1 201609Z 17010KT 33/20 A2988 RMK A01 T03290203  RH  048%=      5-min Rain = 0
KES1 201610Z 18010G15KT 33/20 A2988 RMK A01 T03290202  RH  047%=      5-min Rain = 0
KES1 201611Z 18007KT 33/21 A2988 RMK A01 T03280205  RH  048%=      5-min Rain = 0
KES1 201612Z 18013KT 33/21 A2988 RMK A01 T03310205  RH  048%=      5-min Rain = 0
KES1 201613Z 17010KT 33/21 A2988 RMK A01 T03340205  RH  047%=      5-min Rain = 0
KES1 201614Z 17011KT 34/20 A2988 RMK A01 T03360204  RH  046%=      5-min Rain = 0
KES1 201615Z 18016KT 34/20 A2988 RMK A01 T03360203  RH  046%=      5-min Rain = 0
KES1 201616Z 19012KT 33/20 A2988 RMK A01 T03330203  RH  046%=      5-min Rain = 0
KES1 201617Z 18009KT 33/20 A2988 RMK A01 T03330204  RH  047%=      5-min Rain = 0
KES1 201618Z 18010KT 33/20 A2988 RMK A01 T03330204  RH  047%=      5-min Rain = 0
KES1 201619Z 17015KT 33/20 A2988 RMK A01 T03330203  RH  046%=      5-min Rain = 0
KES1 201620Z 18012KT 33/20 A2988 RMK A01 T03310203  RH  047%=      5-min Rain = 0
KES1 201621Z 19012KT 33/20 A2988 RMK A01 T03310202  RH  047%=      5-min Rain = 0
KES1 201622Z 18010KT 33/20 A2988 RMK A01 T03320203  RH  047%=      5-min Rain = 0
KES1 201623Z 18009G14KT 33/20 A2988 RMK A01 T03320203  RH  047%=      5-min Rain = 0
KES1 201624Z 19008KT 33/20 A2988 RMK A01 T03320204  RH  047%=      5-min Rain = 0
KES1 201625Z 19011G16KT 33/20 A2988 RMK A01 T03340204  RH  046%=      5-min Rain = 0
KES1 201626Z 17013KT 34/20 A2988 RMK A01 T03360204  RH  046%=      5-min Rain = 0
KES1 201627Z 18013G18KT 34/20 A2988 RMK A01 T03360203  RH  046%=      5-min Rain = 0
KES1 201628Z 19013G18KT 34/20 A2988 RMK A01 T03350203  RH  046%=      5-min Rain = 0
KES1 201629Z 18013G18KT 33/20 A2988 RMK A01 T03340201  RH  046%=      5-min Rain = 0
KES1 201630Z 17012KT 33/20 A2988 RMK A01 T03330202  RH  046%=      5-min Rain = 0
KES1 201631Z 18015KT 34/20 A2988 RMK A01 T03350201  RH  046%=      5-min Rain = 0
KES1 201632Z 18010KT 33/20 A2988 RMK A01 T03340201  RH  046%=      5-min Rain = 0
KES1 201633Z 18012KT 33/20 A2988 RMK A01 T03330202  RH  046%=      5-min Rain = 0
KES1 201634Z 19012KT 34/20 A2988 RMK A01 T03350202  RH  046%=      5-min Rain = 0
KES1 201635Z 18012G17KT 34/20 A2988 RMK A01 T03370203  RH  045%=      5-min Rain = 0
KES1 201636Z 17012KT 34/20 A2988 RMK A01 T03390203  RH  045%=      5-min Rain = 0
KES1 201637Z 19011KT 34/20 A2988 RMK A01 T03410203  RH  044%=      5-min Rain = 0
KES1 201638Z 19010KT 34/20 A2988 RMK A01 T03410202  RH  044%=      5-min Rain = 0
KES1 201639Z 20016KT 34/20 A2988 RMK A01 T03400202  RH  045%=      5-min Rain = 0
KES1 201640Z 20015KT 34/20 A2988 RMK A01 T03380199  RH  044%=      5-min Rain = 0
KES1 201641Z 18012KT 34/20 A2988 RMK A01 T03350199  RH  045%=      5-min Rain = 0
KES1 201642Z 16010KT 34/20 A2988 RMK A01 T03350200  RH  045%=      5-min Rain = 0
KES1 201643Z 17008G14KT 34/20 A2988 RMK A01 T03390203  RH  045%=      5-min Rain = 0
KES1 201644Z 17010KT 34/20 A2988 RMK A01 T03420202  RH  044%=      5-min Rain = 0
KES1 201645Z 18014KT 34/20 A2988 RMK A01 T03420200  RH  043%=      5-min Rain = 0
KES1 201646Z 19016KT 34/20 A2988 RMK A01 T03400197  RH  043%=      5-min Rain = 0
KES1 201647Z 19013KT 34/20 A2988 RMK A01 T03360198  RH  044%=      5-min Rain = 0
KES1 201648Z 19011KT 34/20 A2988 RMK A01 T03350198  RH  045%=      5-min Rain = 0
KES1 201649Z 19009KT 34/20 A2988 RMK A01 T03350198  RH  045%=      5-min Rain = 0
KES1 201650Z 20010KT 34/20 A2988 RMK A01 T03360200  RH  045%=      5-min Rain = 0
KES1 201651Z 18010KT 34/20 A2988 RMK A01 T03360201  RH  045%=      5-min Rain = 0
KES1 201652Z 17009KT 34/20 A2988 RMK A01 T03410204  RH  045%=      5-min Rain = 0
KES1 201653Z 21008KT 35/20 A2988 RMK A01 T03450202  RH  043%=      5-min Rain = 0
KES1 201654Z 19009KT 35/20 A2988 RMK A01 T03460201  RH  043%=      5-min Rain = 0
KES1 201655Z 16013KT 35/20 A2988 RMK A01 T03460201  RH  043%=      5-min Rain = 0
KES1 201656Z 17013KT 35/20 A2988 RMK A01 T03460200  RH  043%=      5-min Rain = 0
KES1 201657Z 18011KT 35/20 A2988 RMK A01 T03450199  RH  042%=      5-min Rain = 0
KES1 201658Z 18014KT 35/20 A2988 RMK A01 T03470198  RH  042%=      5-min Rain = 0
KES1 201659Z 19014KT 35/20 A2988 RMK A01 T03450197  RH  042%=      5-min Rain = 0
KES1 201700Z 18010KT 34/20 A2988 RMK A01 T03430197  RH  042%=      5-min Rain = 0
KES1 201701Z 19009KT 34/20 A2988 RMK A01 T03440200  RH  043%=      5-min Rain = 0
KES1 201702Z 17009KT 35/20 A2988 RMK A01 T03470199  RH  042%=      5-min Rain = 0
KES1 201703Z 18010KT 35/20 A2988 RMK A01 T03470200  RH  042%=      5-min Rain = 0
KES1 201704Z 20010KT 35/20 A2988 RMK A01 T03460200  RH  042%=      5-min Rain = 0
KES1 201705Z 19010KT 35/20 A2988 RMK A01 T03460201  RH  043%=      5-min Rain = 0
KES1 201706Z 17010KT 35/20 A2988 RMK A01 T03470202  RH  043%=      5-min Rain = 0
KES1 201707Z 19010G15KT 35/20 A2988 RMK A01 T03480202  RH  042%=      5-min Rain = 0
KES1 201708Z 20015KT 35/20 A2988 RMK A01 T03480198  RH  041%=      5-min Rain = 0
KES1 201709Z 19012KT 35/20 A2988 RMK A01 T03450198  RH  042%=      5-min Rain = 0
KES1 201710Z 21011KT 34/20 A2988 RMK A01 T03440198  RH  042%=      5-min Rain = 0
KES1 201711Z 20011KT 35/20 A2988 RMK A01 T03460198  RH  042%=      5-min Rain = 0
KES1 201712Z 20015KT 35/20 A2988 RMK A01 T03460197  RH  042%=      5-min Rain = 0
KES1 201713Z 20011KT 35/20 A2988 RMK A01 T03450198  RH  042%=      5-min Rain = 0
KES1 201714Z 21011KT 34/20 A2988 RMK A01 T03440197  RH  042%=      5-min Rain = 0
KES1 201715Z 19012KT 34/20 A2987 RMK A01 T03440198  RH  042%=      5-min Rain = 0
KES1 201716Z 18009KT 35/20 A2988 RMK A01 T03460199  RH  042%=      5-min Rain = 0
KES1 201717Z 18011KT 35/20 A2988 RMK A01 T03500197  RH  041%=      5-min Rain = 0
KES1 201718Z 18010G15KT 35/20 A2988 RMK A01 T03500198  RH  041%=      5-min Rain = 0
KES1 201719Z 19013KT 35/20 A2987 RMK A01 T03480200  RH  042%=      5-min Rain = 0
KES1 201720Z 20015KT 35/20 A2987 RMK A01 T03480199  RH  042%=      5-min Rain = 0
KES1 201721Z 19011G17KT 35/20 A2988 RMK A01 T03470198  RH  042%=      5-min Rain = 0
KES1 201722Z 18010KT 35/20 A2988 RMK A01 T03460199  RH  042%=      5-min Rain = 0
KES1 201723Z 20011KT 35/20 A2987 RMK A01 T03460199  RH  042%=      5-min Rain = 0
KES1 201724Z 18011G16KT 35/20 A2987 RMK A01 T03470200  RH  042%=      5-min Rain = 0
KES1 201725Z 18011KT 35/20 A2987 RMK A01 T03500201  RH  042%=      5-min Rain = 0
KES1 201726Z 17011KT 35/20 A2987 RMK A01 T03520201  RH  041%=      5-min Rain = 0
KES1 201727Z 16011G16KT 35/20 A2987 RMK A01 T03530201  RH  041%=      5-min Rain = 0
KES1 201728Z 19011KT 35/20 A2987 RMK A01 T03540199  RH  040%=      5-min Rain = 0
KES1 201729Z 20015KT 35/19 A2987 RMK A01 T03510194  RH  040%=      5-min Rain = 0
KES1 201730Z 18014KT 35/19 A2987 RMK A01 T03500194  RH  040%=      5-min Rain = 0
KES1 201731Z 18014KT 35/19 A2987 RMK A01 T03510194  RH  040%=      5-min Rain = 0
KES1 201732Z 20011KT 35/20 A2987 RMK A01 T03510197  RH  041%=      5-min Rain = 0
KES1 201733Z 19010KT 35/20 A2987 RMK A01 T03540197  RH  040%=      5-min Rain = 0
KES1 201734Z 17009G14KT 35/20 A2987 RMK A01 T03540198  RH  040%=      5-min Rain = 0
KES1 201735Z 18010KT 36/20 A2987 RMK A01 T03550198  RH  040%=      5-min Rain = 0
KES1 201736Z 19014KT 36/20 A2987 RMK A01 T03560197  RH  039%=      5-min Rain = 0
KES1 201737Z 19010KT 35/20 A2987 RMK A01 T03540196  RH  040%=      5-min Rain = 0
KES1 201738Z 18009KT 35/20 A2987 RMK A01 T03540199  RH  040%=      5-min Rain = 0
KES1 201739Z 17010KT 36/20 A2987 RMK A01 T03570196  RH  039%=      5-min Rain = 0
KES1 201740Z 18013KT 36/20 A2987 RMK A01 T03570197  RH  039%=      5-min Rain = 0
KES1 201741Z 19012KT 36/19 A2987 RMK A01 T03550194  RH  039%=      5-min Rain = 0
KES1 201742Z 17012KT 35/19 A2987 RMK A01 T03530194  RH  039%=      5-min Rain = 0
KES1 201743Z 16009KT 35/20 A2987 RMK A01 T03530195  RH  040%=      5-min Rain = 0
KES1 201744Z 17009KT 35/20 A2987 RMK A01 T03530196  RH  040%=      5-min Rain = 0
KES1 201745Z 16010G15KT 36/20 A2987 RMK A01 T03550196  RH  039%=      5-min Rain = 0
KES1 201746Z 16011KT 36/20 A2987 RMK A01 T03580199  RH  039%=      5-min Rain = 0
KES1 201747Z 16015KT 36/20 A2987 RMK A01 T03620198  RH  038%=      5-min Rain = 0
KES1 201748Z 17014KT 36/20 A2987 RMK A01 T03630195  RH  037%=      5-min Rain = 0
KES1 201749Z 17013KT 36/19 A2987 RMK A01 T03590193  RH  038%=      5-min Rain = 0
KES1 201750Z 18012KT 36/20 A2987 RMK A01 T03570195  RH  039%=      5-min Rain = 0
KES1 201751Z 17010KT 36/20 A2987 RMK A01 T03570196  RH  039%=      5-min Rain = 0
KES1 201752Z 17010G16KT 36/20 A2987 RMK A01 T03580199  RH  039%=      5-min Rain = 0
KES1 201753Z 15011KT 36/20 A2986 RMK A01 T03590199  RH  039%=      5-min Rain = 0
KES1 201754Z 17012KT 36/20 A2986 RMK A01 T03600198  RH  039%=      5-min Rain = 0
KES1 201755Z 17011KT 36/20 A2986 RMK A01 T03600197  RH  038%=      5-min Rain = 0
KES1 201756Z 15012G18KT 36/20 A2986 RMK A01 T03600196  RH  038%=      5-min Rain = 0
KES1 201757Z 16012KT 36/20 A2986 RMK A01 T03610199  RH  039%=      5-min Rain = 0
KES1 201758Z 19013KT 36/20 A2986 RMK A01 T03640198  RH  038%=      5-min Rain = 0
KES1 201759Z 17012KT 36/20 A2986 RMK A01 T03620198  RH  038%=      5-min Rain = 0
KES1 201800Z 16012KT 36/20 A2986 RMK A01 T03640196  RH  038%=      5-min Rain = 0
KES1 201801Z 17012KT 36/20 A2986 RMK A01 T03640196  RH  037%=      5-min Rain = 0
KES1 201802Z 16007KT 36/20 A2986 RMK A01 T03610196  RH  038%=      5-min Rain = 0
KES1 201803Z 15010G15KT 36/20 A2986 RMK A01 T03610196  RH  038%=      5-min Rain = 0
KES1 201804Z 16014KT 36/19 A2986 RMK A01 T03630190  RH  036%=      5-min Rain = 0
KES1 201805Z 17013KT 36/18 A2986 RMK A01 T03630184  RH  035%=      5-min Rain = 0
KES1 201806Z 17011KT 36/19 A2986 RMK A01 T03610185  RH  036%=      5-min Rain = 0
KES1 201807Z 17011KT 36/19 A2986 RMK A01 T03610187  RH  036%=      5-min Rain = 0
KES1 201808Z 16012KT 36/19 A2986 RMK A01 T03640190  RH  036%=      5-min Rain = 0
KES1 201809Z 16010KT 37/19 A2986 RMK A01 T03650191  RH  036%=      5-min Rain = 0
KES1 201810Z 16009G14KT 37/19 A2986 RMK A01 T03650193  RH  037%=      5-min Rain = 0
KES1 201811Z 18016G21KT 37/19 A2986 RMK A01 T03660189  RH  036%=      5-min Rain = 0
KES1 201812Z 16012G18KT 37/19 A2986 RMK A01 T03650188  RH  035%=      5-min Rain = 0
KES1 201813Z 15012KT 37/19 A2986 RMK A01 T03660188  RH  035%=      5-min Rain = 0
KES1 201814Z 15011KT 37/19 A2986 RMK A01 T03690190  RH  035%=      5-min Rain = 0
KES1 201815Z 15012G18KT 37/19 A2986 RMK A01 T03700190  RH  035%=      5-min Rain = 0
KES1 201816Z 16014KT 37/19 A2986 RMK A01 T03700191  RH  035%=      5-min Rain = 0
KES1 201817Z 17013KT 37/19 A2986 RMK A01 T03680193  RH  036%=      5-min Rain = 0
KES1 201818Z 16010KT 36/19 A2986 RMK A01 T03640194  RH  037%=      5-min Rain = 0
KES1 201819Z 14010KT 37/20 A2986 RMK A01 T03650197  RH  037%=      5-min Rain = 0
KES1 201820Z 16011KT 37/20 A2986 RMK A01 T03680197  RH  037%=      5-min Rain = 0
KES1 201821Z 16013KT 37/20 A2986 RMK A01 T03710196  RH  036%=      5-min Rain = 0
KES1 201822Z 17009G14KT 37/19 A2986 RMK A01 T03700193  RH  036%=      5-min Rain = 0
KES1 201823Z 17013G18KT 37/19 A2986 RMK A01 T03700190  RH  035%=      5-min Rain = 0
KES1 201824Z 17012KT 37/19 A2986 RMK A01 T03710189  RH  035%=      5-min Rain = 0
KES1 201825Z 17011KT 37/19 A2985 RMK A01 T03710189  RH  034%=      5-min Rain = 0
KES1 201826Z 17008KT 37/19 A2985 RMK A01 T03710193  RH  035%=      5-min Rain = 0
KES1 201827Z 17016G25KT 38/19 A2985 RMK A01 T03750192  RH  035%=      5-min Rain = 0
KES1 201828Z 16011G16KT 38/19 A2986 RMK A01 T03750191  RH  034%=      5-min Rain = 0
KES1 201829Z 15012KT 37/19 A2986 RMK A01 T03730190  RH  034%=      5-min Rain = 0
KES1 201830Z 18013KT 37/19 A2985 RMK A01 T03730185  RH  033%=      5-min Rain = 0
KES1 201831Z 18013KT 37/18 A2985 RMK A01 T03730183  RH  033%=      5-min Rain = 0
KES1 201832Z 17011KT 37/19 A2985 RMK A01 T03710186  RH  034%=      5-min Rain = 0
KES1 201833Z 17013KT 37/18 A2985 RMK A01 T03700184  RH  034%=      5-min Rain = 0
KES1 201834Z 17012KT 37/18 A2985 RMK A01 T03710176  RH  032%=      5-min Rain = 0
KES1 201835Z 17013KT 37/18 A2986 RMK A01 T03700180  RH  033%=      5-min Rain = 0
KES1 201836Z 14013KT 37/19 A2985 RMK A01 T03700186  RH  034%=      5-min Rain = 0
KES1 201837Z 14013KT 37/19 A2985 RMK A01 T03710186  RH  034%=      5-min Rain = 0
KES1 201838Z 14012KT 37/19 A2985 RMK A01 T03700187  RH  034%=      5-min Rain = 0
KES1 201839Z 15014G20KT 37/19 A2985 RMK A01 T03710186  RH  034%=      5-min Rain = 0
KES1 201840Z 15014G19KT 37/18 A2985 RMK A01 T03720181  RH  033%=      5-min Rain = 0
KES1 201841Z 18011KT 37/18 A2985 RMK A01 T03730181  RH  032%=      5-min Rain = 0
KES1 201842Z 17014KT 38/18 A2985 RMK A01 T03760182  RH  032%=      5-min Rain = 0
KES1 201843Z 17011KT 37/18 A2985 RMK A01 T03740183  RH  033%=      5-min Rain = 0
KES1 201844Z 17013G18KT 37/19 A2985 RMK A01 T03740186  RH  033%=      5-min Rain = 0
KES1 201845Z 16012KT 38/18 A2985 RMK A01 T03750184  RH  033%=      5-min Rain = 0
KES1 201846Z 15017G22KT 37/18 A2985 RMK A01 T03730180  RH  032%=      5-min Rain = 0
KES1 201847Z 14015KT 37/18 A2985 RMK A01 T03720177  RH  032%=      5-min Rain = 0
KES1 201848Z 16014KT 37/18 A2985 RMK A01 T03710177  RH  032%=      5-min Rain = 0
KES1 201849Z 16015KT 37/18 A2985 RMK A01 T03720177  RH  032%=      5-min Rain = 0
KES1 201850Z 16011KT 37/18 A2985 RMK A01 T03710180  RH  033%=      5-min Rain = 0
KES1 201851Z 18009KT 37/18 A2985 RMK A01 T03730182  RH  033%=      5-min Rain = 0
KES1 201852Z 16012KT 37/18 A2985 RMK A01 T03740182  RH  033%=      5-min Rain = 0
KES1 201853Z 16014KT 37/18 A2985 RMK A01 T03720184  RH  033%=      5-min Rain = 0
KES1 201854Z 18015G22KT 37/18 A2985 RMK A01 T03740177  RH  031%=      5-min Rain = 0
KES1 201855Z 18012G18KT 38/18 A2985 RMK A01 T03750175  RH  031%=      5-min Rain = 0
KES1 201856Z 19011KT 38/18 A2985 RMK A01 T03760175  RH  031%=      5-min Rain = 0
KES1 201857Z 17014KT 38/18 A2984 RMK A01 T03780176  RH  031%=      5-min Rain = 0
KES1 201858Z 18013KT 38/17 A2985 RMK A01 T03800169  RH  029%=      5-min Rain = 0
KES1 201859Z 17012KT 38/17 A2985 RMK A01 T03820169  RH  029%=      5-min Rain = 0
KES1 201900Z 16014KT 38/17 A2985 RMK A01 T03810173  RH  030%=      5-min Rain = 0
KES1 201901Z 18010KT 38/18 A2984 RMK A01 T03790175  RH  030%=      5-min Rain = 0
KES1 201902Z 18015KT 38/18 A2984 RMK A01 T03790180  RH  031%=      5-min Rain = 0
KES1 201903Z 17013G19KT 38/19 A2984 RMK A01 T03810185  RH  032%=      5-min Rain = 0
KES1 201904Z 16013G18KT 38/18 A2984 RMK A01 T03810182  RH  031%=      5-min Rain = 0
KES1 201905Z 15013KT 38/18 A2984 RMK A01 T03810178  RH  031%=      5-min Rain = 0
KES1 201906Z 14022KT 38/17 A2984 RMK A01 T03800172  RH  029%=      5-min Rain = 0
KES1 201907Z 15017G22KT 38/18 A2984 RMK A01 T03770178  RH  031%=      5-min Rain = 0
KES1 201908Z 15017KT 38/18 A2984 RMK A01 T03780180  RH  031%=      5-min Rain = 0
KES1 201909Z 15018KT 38/18 A2984 RMK A01 T03780184  RH  032%=      5-min Rain = 0
KES1 201910Z 16018KT 38/19 A2984 RMK A01 T03760185  RH  033%=      5-min Rain = 0
KES1 201911Z 15011KT 38/19 A2984 RMK A01 T03750185  RH  033%=      5-min Rain = 0
KES1 201912Z 14013KT 38/19 A2984 RMK A01 T03760187  RH  033%=      5-min Rain = 0
KES1 201913Z 16012G18KT 38/19 A2984 RMK A01 T03770186  RH  033%=      5-min Rain = 0
KES1 201914Z 16017G23KT 38/18 A2984 RMK A01 T03790177  RH  031%=      5-min Rain = 0
KES1 201915Z 17015KT 38/17 A2984 RMK A01 T03790174  RH  030%=      5-min Rain = 0
KES1 201916Z 16017KT 38/18 A2984 RMK A01 T03790176  RH  030%=      5-min Rain = 0
KES1 201917Z 15017KT 38/18 A2984 RMK A01 T03790178  RH  031%=      5-min Rain = 0
KES1 201918Z 14014KT 38/18 A2984 RMK A01 T03790176  RH  031%=      5-min Rain = 0
KES1 201919Z 16010KT 38/18 A2984 RMK A01 T03810179  RH  031%=      5-min Rain = 0
KES1 201920Z 17014KT 38/18 A2984 RMK A01 T03830177  RH  030%=      5-min Rain = 0
KES1 201921Z 18012G19KT 39/18 A2984 RMK A01 T03850178  RH  030%=      5-min Rain = 0
KES1 201922Z 17014KT 39/17 A2984 RMK A01 T03880172  RH  028%=      5-min Rain = 0
KES1 201923Z 16013KT 39/18 A2984 RMK A01 T03860175  RH  029%=      5-min Rain = 0
KES1 201924Z 18012G18KT 38/18 A2984 RMK A01 T03840175  RH  030%=      5-min Rain = 0
KES1 201925Z 16013KT 39/18 A2984 RMK A01 T03850175  RH  029%=      5-min Rain = 0
KES1 201926Z 18015KT 39/17 A2984 RMK A01 T03870169  RH  028%=      5-min Rain = 0
KES1 201927Z 16014G20KT 39/17 A2984 RMK A01 T03880166  RH  027%=      5-min Rain = 0
KES1 201928Z 15015KT 39/16 A2984 RMK A01 T03890163  RH  027%=      5-min Rain = 0
KES1 201929Z 17014G19KT 39/16 A2984 RMK A01 T03870162  RH  027%=      5-min Rain = 0
KES1 201930Z 15013KT 39/17 A2984 RMK A01 T03850168  RH  028%=      5-min Rain = 0
KES1 201931Z 17014G19KT 39/17 A2984 RMK A01 T03860170  RH  028%=      5-min Rain = 0
KES1 201932Z 17013G18KT 39/17 A2984 RMK A01 T03860165  RH  027%=      5-min Rain = 0
KES1 201933Z 17014KT 39/17 A2984 RMK A01 T03850166  RH  028%=      5-min Rain = 0
KES1 201934Z 18015KT 39/16 A2983 RMK A01 T03850164  RH  027%=      5-min Rain = 0
KES1 201935Z 17012G17KT 39/17 A2983 RMK A01 T03850165  RH  028%=      5-min Rain = 0
KES1 201936Z 19015KT 39/17 A2983 RMK A01 T03870167  RH  028%=      5-min Rain = 0
KES1 201937Z 17011KT 39/17 A2983 RMK A01 T03870167  RH  028%=      5-min Rain = 0
KES1 201938Z 16015G20KT 39/17 A2983 RMK A01 T03890169  RH  028%=      5-min Rain = 0
KES1 201939Z 17018KT 39/17 A2983 RMK A01 T03880170  RH  028%=      5-min Rain = 0
KES1 201940Z 17015KT 39/17 A2983 RMK A01 T03860172  RH  029%=      5-min Rain = 0
KES1 201941Z 16013KT 39/17 A2983 RMK A01 T03860171  RH  029%=      5-min Rain = 0
KES1 201942Z 15010KT 38/17 A2983 RMK A01 T03840172  RH  029%=      5-min Rain = 0
KES1 201943Z 18014G19KT 39/17 A2983 RMK A01 T03850173  RH  029%=      5-min Rain = 0
KES1 201944Z 18016KT 39/17 A2983 RMK A01 T03890173  RH  028%=      5-min Rain = 0
KES1 201945Z 18010G15KT 39/17 A2983 RMK A01 T03880173  RH  028%=      5-min Rain = 0
KES1 201946Z 16011KT 39/18 A2983 RMK A01 T03870176  RH  029%=      5-min Rain = 0
KES1 201947Z 16011KT 39/18 A2983 RMK A01 T03890177  RH  029%=      5-min Rain = 0
KES1 201948Z 15010KT 39/18 A2983 RMK A01 T03910177  RH  029%=      5-min Rain = 0
KES1 201949Z 14016G21KT 39/18 A2983 RMK A01 T03930175  RH  028%=      5-min Rain = 0
KES1 201950Z 15014KT 39/17 A2983 RMK A01 T03900171  RH  028%=      5-min Rain = 0
KES1 201951Z 16017G22KT 39/17 A2983 RMK A01 T03880171  RH  028%=      5-min Rain = 0
KES1 201952Z 16019G24KT 39/17 A2983 RMK A01 T03880169  RH  028%=      5-min Rain = 0
KES1 201953Z 16014G21KT 39/17 A2983 RMK A01 T03880167  RH  027%=      5-min Rain = 0
KES1 201954Z 17013G19KT 39/17 A2983 RMK A01 T03910165  RH  027%=      5-min Rain = 0
KES1 201955Z 17015KT 39/16 A2983 RMK A01 T03930157  RH  025%=      5-min Rain = 0
KES1 201956Z 17015KT 39/16 A2983 RMK A01 T03910157  RH  025%=      5-min Rain = 0
KES1 201957Z 17011G17KT 39/16 A2982 RMK A01 T03880160  RH  026%=      5-min Rain = 0
KES1 201958Z 17016G21KT 39/17 A2982 RMK A01 T03880169  RH  028%=      5-min Rain = 0
KES1 201959Z 16015KT 39/17 A2983 RMK A01 T03910171  RH  028%=      5-min Rain = 0
KES1 202000Z 17015G20KT 39/17 A2983 RMK A01 T03910167  RH  027%=      5-min Rain = 0
KES1 202001Z 17012KT 39/17 A2983 RMK A01 T03890166  RH  027%=      5-min Rain = 0
KES1 202002Z 17010G15KT 39/17 A2983 RMK A01 T03900169  RH  028%=      5-min Rain = 0
KES1 202003Z 18016G21KT 39/17 A2982 RMK A01 T03930167  RH  027%=      5-min Rain = 0
KES1 202004Z 18020KT 39/17 A2982 RMK A01 T03920166  RH  027%=      5-min Rain = 0
KES1 202005Z 19014G19KT 39/16 A2982 RMK A01 T03890164  RH  027%=      5-min Rain = 0
KES1 202006Z 17013G21KT 39/17 A2982 RMK A01 T03860165  RH  027%=      5-min Rain = 0
KES1 202007Z 16016KT 39/16 A2982 RMK A01 T03880163  RH  027%=      5-min Rain = 0
KES1 202008Z 15017KT 39/16 A2982 RMK A01 T03880160  RH  026%=      5-min Rain = 0
KES1 202009Z 15016KT 39/16 A2982 RMK A01 T03870161  RH  026%=      5-min Rain = 0
KES1 202010Z 15014KT 39/16 A2982 RMK A01 T03880160  RH  026%=      5-min Rain = 0
KES1 202011Z 16012KT 39/16 A2982 RMK A01 T03890162  RH  026%=      5-min Rain = 0
KES1 202012Z 16013KT 39/16 A2982 RMK A01 T03900163  RH  027%=      5-min Rain = 0
KES1 202013Z 16010KT 39/17 A2982 RMK A01 T03900166  RH  027%=      5-min Rain = 0
KES1 202014Z 16015KT 39/17 A2982 RMK A01 T03940167  RH  027%=      5-min Rain = 0
KES1 202015Z 17013KT 40/17 A2982 RMK A01 T03960167  RH  026%=      5-min Rain = 0
KES1 202016Z 17012G17KT 40/16 A2982 RMK A01 T03970163  RH  026%=      5-min Rain = 0
KES1 202017Z 16015G20KT 39/16 A2982 RMK A01 T03930160  RH  026%=      5-min Rain = 0
KES1 202018Z 17015KT 39/16 A2982 RMK A01 T03910161  RH  026%=      5-min Rain = 0
KES1 202019Z 18012KT 39/16 A2982 RMK A01 T03920161  RH  026%=      5-min Rain = 0
KES1 202020Z 17010KT 39/16 A2982 RMK A01 T03940163  RH  026%=      5-min Rain = 0
KES1 202021Z 18015G20KT 40/16 A2982 RMK A01 T03950163  RH  026%=      5-min Rain = 0
KES1 202022Z 16013G18KT 39/17 A2982 RMK A01 T03940165  RH  026%=      5-min Rain = 0
KES1 202023Z 16014G19KT 39/17 A2982 RMK A01 T03930165  RH  026%=      5-min Rain = 0
KES1 202024Z 15015KT 39/17 A2982 RMK A01 T03900168  RH  027%=      5-min Rain = 0
KES1 202025Z 17014KT 39/16 A2982 RMK A01 T03920164  RH  026%=      5-min Rain = 0
KES1 202026Z 17010KT 39/16 A2981 RMK A01 T03910160  RH  026%=      5-min Rain = 0
KES1 202027Z 18015G20KT 39/16 A2981 RMK A01 T03910161  RH  026%=      5-min Rain = 0
KES1 202028Z 18016G22KT 39/16 A2981 RMK A01 T03930155  RH  025%=      5-min Rain = 0
KES1 202029Z 18016KT 39/15 A2981 RMK A01 T03930154  RH  025%=      5-min Rain = 0
KES1 202030Z 16013G18KT 39/15 A2981 RMK A01 T03910154  RH  025%=      5-min Rain = 0
KES1 202031Z 18012KT 39/16 A2981 RMK A01 T03900158  RH  026%=      5-min Rain = 0
KES1 202032Z 18013G19KT 39/16 A2981 RMK A01 T03920162  RH  026%=      5-min Rain = 0
KES1 202033Z 16011KT 40/17 A2981 RMK A01 T03950168  RH  027%=      5-min Rain = 0
KES1 202034Z 16011KT 40/17 A2981 RMK A01 T03970167  RH  026%=      5-min Rain = 0
KES1 202035Z 16014KT 40/17 A2981 RMK A01 T03960166  RH  026%=      5-min Rain = 0
KES1 202036Z 17012G17KT 39/17 A2981 RMK A01 T03910168  RH  027%=      5-min Rain = 0
KES1 202037Z 16017G22KT 39/17 A298 RMK A01 T03920169  RH  027%=      5-min Rain = 0
KES1 202038Z 15011KT 39/17 A2981 RMK A01 T03930169  RH  027%=      5-min Rain = 0
KES1 202039Z 15012G21KT 40/17 A2981 RMK A01 T03960173  RH  027%=      5-min Rain = 0
KES1 202040Z 15019KT 40/17 A298 RMK A01 T03980165  RH  026%=      5-min Rain = 0
KES1 202041Z 15015KT 40/17 A2981 RMK A01 T03950165  RH  026%=      5-min Rain = 0
KES1 202042Z 15015KT 40/17 A2981 RMK A01 T03950165  RH  026%=      5-min Rain = 0
KES1 202043Z 15015G20KT 39/16 A298 RMK A01 T03940162  RH  026%=      5-min Rain = 0
KES1 202044Z 15018G23KT 39/16 A298 RMK A01 T03930161  RH  026%=      5-min Rain = 0
KES1 202045Z 15015KT 39/16 A298 RMK A01 T03930162  RH  026%=      5-min Rain = 0
KES1 202046Z 15013KT 39/16 A298 RMK A01 T03930162  RH  026%=      5-min Rain = 0
KES1 202047Z 15015KT 39/16 A298 RMK A01 T03940162  RH  026%=      5-min Rain = 0
KES1 202048Z 15014KT 39/16 A298 RMK A01 T03930163  RH  026%=      5-min Rain = 0
KES1 202049Z 17014G19KT 39/16 A298 RMK A01 T03930161  RH  026%=      5-min Rain = 0
KES1 202050Z 17015G20KT 40/16 A298 RMK A01 T03950156  RH  025%=      5-min Rain = 0
KES1 202051Z 18016G21KT 40/15 A298 RMK A01 T03950152  RH  024%=      5-min Rain = 0
KES1 202052Z 16018KT 40/15 A298 RMK A01 T03950153  RH  024%=      5-min Rain = 0
KES1 202053Z 17015KT 39/15 A298 RMK A01 T03930153  RH  024%=      5-min Rain = 0
KES1 202054Z 16010KT 39/15 A298 RMK A01 T03910154  RH  025%=      5-min Rain = 0
KES1 202055Z 17016KT 39/16 A298 RMK A01 T03920156  RH  025%=      5-min Rain = 0
KES1 202056Z 17017KT 39/15 A298 RMK A01 T03930154  RH  025%=      5-min Rain = 0
KES1 202057Z 16017G23KT 39/15 A298 RMK A01 T03930152  RH  024%=      5-min Rain = 0
KES1 202058Z 18015KT 39/15 A298 RMK A01 T03930151  RH  024%=      5-min Rain = 0
KES1 202059Z 18015G21KT 39/15 A298 RMK A01 T03940151  RH  024%=      5-min Rain = 0
KES1 202100Z 19012G18KT 39/15 A298 RMK A01 T03940152  RH  024%=      5-min Rain = 0
KES1 202101Z 18014KT 40/16 A298 RMK A01 T03950155  RH  024%=      5-min Rain = 0
KES1 202102Z 18013KT 40/16 A298 RMK A01 T03960155  RH  024%=      5-min Rain = 0
KES1 202103Z 17012KT 40/15 A298 RMK A01 T03960154  RH  024%=      5-min Rain = 0
KES1 202104Z 19011G16KT 40/15 A298 RMK A01 T03970154  RH  024%=      5-min Rain = 0
KES1 202105Z 18016KT 40/15 A298 RMK A01 T03990151  RH  023%=      5-min Rain = 0
KES1 202106Z 18016KT 40/15 A298 RMK A01 T03960150  RH  024%=      5-min Rain = 0
KES1 202107Z 17013G18KT 40/15 A298 RMK A01 T03950150  RH  024%=      5-min Rain = 0
KES1 202108Z 19015G20KT 40/15 A298 RMK A01 T03960154  RH  024%=      5-min Rain = 0
KES1 202109Z 17014G19KT 40/16 A298 RMK A01 T03980157  RH  024%=      5-min Rain = 0
KES1 202110Z 18015G20KT 40/15 A298 RMK A01 T03970153  RH  024%=      5-min Rain = 0
KES1 202111Z 18017KT 40/15 A298 RMK A01 T03950153  RH  024%=      5-min Rain = 0
KES1 202112Z 17013G18KT 40/15 A298 RMK A01 T03950152  RH  024%=      5-min Rain = 0
KES1 202113Z 18014KT 39/15 A298 RMK A01 T03940152  RH  024%=      5-min Rain = 0
KES1 202114Z 18017G22KT 40/15 A298 RMK A01 T03950150  RH  024%=      5-min Rain = 0
KES1 202115Z 18012G18KT 40/15 A298 RMK A01 T03950151  RH  024%=      5-min Rain = 0
KES1 202116Z 17013KT 40/15 A298 RMK A01 T03950151  RH  024%=      5-min Rain = 0
KES1 202117Z 18014G22KT 40/15 A298 RMK A01 T03970153  RH  024%=      5-min Rain = 0
KES1 202118Z 16016KT 40/15 A298 RMK A01 T03980152  RH  024%=      5-min Rain = 0
KES1 202119Z 15015G20KT 40/15 A298 RMK A01 T03960153  RH  024%=      5-min Rain = 0
KES1 202120Z 16013KT 40/15 A298 RMK A01 T03950153  RH  024%=      5-min Rain = 0
KES1 202121Z 17014KT 39/16 A298 RMK A01 T03940155  RH  025%=      5-min Rain = 0
KES1 202122Z 18013KT 40/15 A298 RMK A01 T03950154  RH  024%=      5-min Rain = 0
KES1 202123Z 19014G19KT 40/16 A298 RMK A01 T03960155  RH  024%=      5-min Rain = 0
KES1 202124Z 18017KT 40/16 A298 RMK A01 T03970155  RH  024%=      5-min Rain = 0
KES1 202125Z 18015KT 40/15 A298 RMK A01 T03960154  RH  024%=      5-min Rain = 0
KES1 202126Z 16013KT 40/16 A298 RMK A01 T03970156  RH  024%=      5-min Rain = 0
KES1 202127Z 18013KT 40/16 A298 RMK A01 T03990158  RH  024%=      5-min Rain = 0
KES1 202128Z 17011KT 40/16 A298 RMK A01 T03990158  RH  024%=      5-min Rain = 0
KES1 202129Z 18010KT 40/16 A2979 RMK A01 T03970158  RH  025%=      5-min Rain = 0
KES1 202130Z 17009KT 40/16 A2979 RMK A01 T03970161  RH  025%=      5-min Rain = 0
KES1 202131Z 17012KT 40/16 A2979 RMK A01 T03990162  RH  025%=      5-min Rain = 0
KES1 202132Z 16013KT 40/16 A2979 RMK A01 T04000162  RH  025%=      5-min Rain = 0
KES1 202133Z 16015G21KT 40/16 A2979 RMK A01 T04000160  RH  025%=      5-min Rain = 0
KES1 202134Z 17014G19KT 40/16 A2979 RMK A01 T03990156  RH  024%=      5-min Rain = 0
KES1 202135Z 17015G20KT 40/16 A2979 RMK A01 T03980155  RH  024%=      5-min Rain = 0
KES1 202136Z 17017G22KT 40/15 A2979 RMK A01 T03980154  RH  024%=      5-min Rain = 0
KES1 202137Z 17014G20KT 40/15 A2979 RMK A01 T03960154  RH  024%=      5-min Rain = 0
KES1 202138Z 16013G19KT 40/15 A2979 RMK A01 T03960154  RH  024%=      5-min Rain = 0
KES1 202139Z 17017KT 40/15 A2979 RMK A01 T03960154  RH  024%=      5-min Rain = 0
KES1 202140Z 18019KT 40/15 A2979 RMK A01 T03950150  RH  024%=      5-min Rain = 0
KES1 202141Z 18015G21KT 39/15 A2979 RMK A01 T03940148  RH  023%=      5-min Rain = 0
KES1 202142Z 18012KT 39/15 A2979 RMK A01 T03940149  RH  024%=      5-min Rain = 0
KES1 202143Z 18016KT 40/15 A2979 RMK A01 T03980148  RH  023%=      5-min Rain = 0
KES1 202144Z 18013G18KT 40/14 A2979 RMK A01 T03990141  RH  022%=      5-min Rain = 0
KES1 202145Z 18013G18KT 40/15 A2979 RMK A01 T03990145  RH  023%=      5-min Rain = 0
KES1 202146Z 17014KT 40/15 A2979 RMK A01 T03990152  RH  023%=      5-min Rain = 0
KES1 202147Z 18012G17KT 40/16 A2979 RMK A01 T03990155  RH  024%=      5-min Rain = 0
KES1 202148Z 16011G17KT 40/16 A2979 RMK A01 T04000157  RH  024%=      5-min Rain = 0
KES1 202149Z 14017G24KT 40/16 A2979 RMK A01 T04010159  RH  024%=      5-min Rain = 0
KES1 202150Z 15015G21KT 40/16 A2979 RMK A01 T03990159  RH  025%=      5-min Rain = 0
KES1 202151Z 15010G16KT 40/16 A2979 RMK A01 T03970159  RH  025%=      5-min Rain = 0
KES1 202152Z 15012G18KT 40/16 A2979 RMK A01 T03960161  RH  025%=      5-min Rain = 0
KES1 202153Z 15014KT 40/16 A2979 RMK A01 T03980157  RH  024%=      5-min Rain = 0
KES1 202154Z 14014KT 40/16 A2979 RMK A01 T03970157  RH  024%=      5-min Rain = 0
KES1 202155Z 15018G23KT 40/16 A2979 RMK A01 T03970158  RH  025%=      5-min Rain = 0
KES1 202156Z 17015KT 40/16 A2979 RMK A01 T03970157  RH  025%=      5-min Rain = 0
KES1 202157Z 17015G21KT 40/15 A2979 RMK A01 T03980154  RH  024%=      5-min Rain = 0
KES1 202158Z 17018KT 40/15 A2979 RMK A01 T03980152  RH  024%=      5-min Rain = 0
KES1 202159Z 16016KT 39/15 A2979 RMK A01 T03940151  RH  024%=      5-min Rain = 0
KES1 202200Z 17015KT 39/15 A2979 RMK A01 T03930153  RH  024%=      5-min Rain = 0
KES1 202201Z 16012KT 40/16 A2979 RMK A01 T03950155  RH  024%=      5-min Rain = 0
KES1 202202Z 17013G19KT 40/15 A2979 RMK A01 T03970154  RH  024%=      5-min Rain = 0
KES1 202203Z 17015G21KT 40/15 A2979 RMK A01 T03980151  RH  023%=      5-min Rain = 0
KES1 202204Z 16014G21KT 40/15 A2979 RMK A01 T03970151  RH  024%=      5-min Rain = 0
KES1 202205Z 16017KT 40/15 A2979 RMK A01 T03960152  RH  024%=      5-min Rain = 0
KES1 202206Z 17018KT 40/15 A2979 RMK A01 T03960149  RH  023%=      5-min Rain = 0
KES1 202207Z 17015KT 39/15 A2979 RMK A01 T03940147  RH  023%=      5-min Rain = 0
KES1 202208Z 15015KT 39/15 A2979 RMK A01 T03930148  RH  024%=      5-min Rain = 0
KES1 202209Z 16013G18KT 39/15 A2979 RMK A01 T03940153  RH  024%=      5-min Rain = 0
KES1 202210Z 15013G19KT 40/16 A2979 RMK A01 T03970155  RH  024%=      5-min Rain = 0
KES1 202211Z 15014KT 40/16 A2978 RMK A01 T03980156  RH  024%=      5-min Rain = 0
KES1 202212Z 17016KT 40/16 A2979 RMK A01 T03980156  RH  024%=      5-min Rain = 0
KES1 202213Z 15014KT 40/16 A2978 RMK A01 T03980155  RH  024%=      5-min Rain = 0
KES1 202214Z 15011KT 40/16 A2979 RMK A01 T03970158  RH  025%=      5-min Rain = 0
KES1 202215Z 16008KT 40/16 A2979 RMK A01 T03990160  RH  025%=      5-min Rain = 0
KES1 202216Z 17016KT 40/16 A2978 RMK A01 T04010159  RH  024%=      5-min Rain = 0
KES1 202217Z 17013G19KT 40/16 A2978 RMK A01 T03990156  RH  024%=      5-min Rain = 0
KES1 202218Z 16014G19KT 40/16 A2978 RMK A01 T03980155  RH  024%=      5-min Rain = 0
KES1 202219Z 17016KT 40/15 A2978 RMK A01 T03970154  RH  024%=      5-min Rain = 0
KES1 202220Z 15014G19KT 40/15 A2978 RMK A01 T03960154  RH  024%=      5-min Rain = 0
KES1 202221Z 16014KT 40/15 A2978 RMK A01 T03960154  RH  024%=      5-min Rain = 0
KES1 202222Z 15013KT 40/15 A2978 RMK A01 T03950153  RH  024%=      5-min Rain = 0
KES1 202223Z 15014KT 40/15 A2978 RMK A01 T03950153  RH  024%=      5-min Rain = 0
KES1 202224Z 17013G18KT 40/15 A2978 RMK A01 T03950153  RH  024%=      5-min Rain = 0
KES1 202225Z 18017KT 40/15 A2978 RMK A01 T03970153  RH  024%=      5-min Rain = 0
KES1 202226Z 18017G23KT 40/15 A2978 RMK A01 T03980149  RH  023%=      5-min Rain = 0
KES1 202227Z 15014G19KT 40/15 A2978 RMK A01 T03970150  RH  023%=      5-min Rain = 0
KES1 202228Z 14016KT 40/15 A2978 RMK A01 T03970149  RH  023%=      5-min Rain = 0
KES1 202229Z 15012KT 40/15 A2978 RMK A01 T03970149  RH  023%=      5-min Rain = 0
KES1 202230Z 15011KT 40/15 A2978 RMK A01 T03980152  RH  024%=      5-min Rain = 0
KES1 202231Z 16013KT 40/15 A2978 RMK A01 T03990151  RH  023%=      5-min Rain = 0
KES1 202232Z 16014KT 40/15 A2978 RMK A01 T03990146  RH  023%=      5-min Rain = 0
KES1 202233Z 16016G21KT 40/14 A2978 RMK A01 T03980142  RH  022%=      5-min Rain = 0
KES1 202234Z 16014G20KT 40/14 A2978 RMK A01 T03960140  RH  022%=      5-min Rain = 0
KES1 202235Z 16015G20KT 40/14 A2978 RMK A01 T03950143  RH  023%=      5-min Rain = 0
KES1 202236Z 17016KT 40/15 A2978 RMK A01 T03950146  RH  023%=      5-min Rain = 0
KES1 202237Z 17012G17KT 39/15 A2978 RMK A01 T03940147  RH  023%=      5-min Rain = 0
KES1 202238Z 17013KT 40/15 A2978 RMK A01 T03950148  RH  023%=      5-min Rain = 0
KES1 202239Z 17011KT 40/15 A2978 RMK A01 T03950151  RH  024%=      5-min Rain = 0
KES1 202240Z 16009KT 40/15 A2978 RMK A01 T03970152  RH  024%=      5-min Rain = 0
KES1 202241Z 15011KT 40/15 A2978 RMK A01 T03970153  RH  024%=      5-min Rain = 0
KES1 202242Z 18011KT 40/15 A2978 RMK A01 T03980153  RH  024%=      5-min Rain = 0
KES1 202243Z 15011G18KT 40/15 A2978 RMK A01 T03990151  RH  023%=      5-min Rain = 0
KES1 202244Z 16016KT 40/15 A2978 RMK A01 T03990153  RH  024%=      5-min Rain = 0
KES1 202245Z 17016KT 40/15 A2978 RMK A01 T03980148  RH  023%=      5-min Rain = 0
KES1 202246Z 18013KT 40/15 A2978 RMK A01 T03960146  RH  023%=      5-min Rain = 0
KES1 202247Z 16012KT 40/15 A2978 RMK A01 T03960148  RH  023%=      5-min Rain = 0
KES1 202248Z 17010KT 40/15 A2978 RMK A01 T03960148  RH  023%=      5-min Rain = 0
KES1 202249Z 18013G18KT 40/15 A2978 RMK A01 T03980150  RH  023%=      5-min Rain = 0
KES1 202250Z 18013KT 40/15 A2978 RMK A01 T03990148  RH  023%=      5-min Rain = 0
KES1 202251Z 17013G19KT 40/15 A2978 RMK A01 T03980149  RH  023%=      5-min Rain = 0
KES1 202252Z 18015KT 40/15 A2978 RMK A01 T03970147  RH  023%=      5-min Rain = 0
KES1 202253Z 17012KT 40/15 A2978 RMK A01 T03960147  RH  023%=      5-min Rain = 0
KES1 202254Z 19013G18KT 40/15 A2978 RMK A01 T03960148  RH  023%=      5-min Rain = 0
KES1 202255Z 18011KT 40/15 A2978 RMK A01 T03960148  RH  023%=      5-min Rain = 0
KES1 202256Z 17009KT 40/15 A2978 RMK A01 T03960149  RH  023%=      5-min Rain = 0
KES1 202257Z 17010G15KT 40/15 A2978 RMK A01 T03970151  RH  024%=      5-min Rain = 0
KES1 202258Z 18015G20KT 40/15 A2978 RMK A01 T03970148  RH  023%=      5-min Rain = 0
KES1 202259Z 17012KT 40/15 A2978 RMK A01 T03970148  RH  023%=      5-min Rain = 0
KES1 202300Z 18014KT 40/15 A2978 RMK A01 T03980147  RH  023%=      5-min Rain = 0
KES1 202301Z 18015KT 40/15 A2978 RMK A01 T03970146  RH  023%=      5-min Rain = 0
KES1 202302Z 17013KT 40/15 A2978 RMK A01 T03950147  RH  023%=      5-min Rain = 0
KES1 202303Z 18012G17KT 39/15 A2978 RMK A01 T03940147  RH  023%=      5-min Rain = 0
KES1 202304Z 17010KT 39/15 A2978 RMK A01 T03940148  RH  024%=      5-min Rain = 0
KES1 202305Z 16011G16KT 39/15 A2978 RMK A01 T03940151  RH  024%=      5-min Rain = 0
KES1 202306Z 15013G18KT 40/15 A2978 RMK A01 T03950152  RH  024%=      5-min Rain = 0
KES1 202307Z 16014KT 40/15 A2978 RMK A01 T03950150  RH  024%=      5-min Rain = 0
KES1 202308Z 15013KT 39/15 A2977 RMK A01 T03940151  RH  024%=      5-min Rain = 0
KES1 202309Z 16014KT 39/15 A2977 RMK A01 T03940152  RH  024%=      5-min Rain = 0
KES1 202310Z 15011KT 39/15 A2977 RMK A01 T03940152  RH  024%=      5-min Rain = 0
KES1 202311Z 17015KT 39/15 A2977 RMK A01 T03940154  RH  025%=      5-min Rain = 0
KES1 202312Z 16014KT 39/15 A2977 RMK A01 T03940151  RH  024%=      5-min Rain = 0
KES1 202313Z 16012KT 39/15 A2977 RMK A01 T03930149  RH  024%=      5-min Rain = 0
KES1 202314Z 18012KT 39/15 A2977 RMK A01 T03920152  RH  024%=      5-min Rain = 0
KES1 202315Z 17011G17KT 39/15 A2977 RMK A01 T03940154  RH  025%=      5-min Rain = 0
KES1 202316Z 17010G15KT 40/16 A2977 RMK A01 T03950156  RH  025%=      5-min Rain = 0
KES1 202317Z 17012KT 40/16 A2977 RMK A01 T03970156  RH  024%=      5-min Rain = 0
KES1 202318Z 17009KT 40/16 A2977 RMK A01 T03980156  RH  024%=      5-min Rain = 0
KES1 202319Z 15011KT 40/16 A2977 RMK A01 T03970156  RH  024%=      5-min Rain = 0
KES1 202320Z 14012G18KT 40/16 A2977 RMK A01 T03960155  RH  024%=      5-min Rain = 0
KES1 202321Z 15014KT 39/16 A2977 RMK A01 T03940155  RH  025%=      5-min Rain = 0
KES1 202322Z 15016KT 39/15 A2977 RMK A01 T03940154  RH  024%=      5-min Rain = 0
KES1 202323Z 15012G17KT 39/16 A2977 RMK A01 T03930155  RH  025%=      5-min Rain = 0
KES1 202324Z 15015KT 39/16 A2977 RMK A01 T03930155  RH  025%=      5-min Rain = 0
KES1 202325Z 16012KT 39/16 A2977 RMK A01 T03930158  RH  025%=      5-min Rain = 0
KES1 202326Z 16012KT 39/16 A2977 RMK A01 T03930159  RH  025%=      5-min Rain = 0
KES1 202327Z 17010G16KT 39/16 A2977 RMK A01 T03940160  RH  025%=      5-min Rain = 0
KES1 202328Z 15015KT 40/16 A2977 RMK A01 T03950158  RH  025%=      5-min Rain = 0
KES1 202329Z 14015KT 39/16 A2977 RMK A01 T03940157  RH  025%=      5-min Rain = 0
KES1 202330Z 15016G21KT 39/16 A2977 RMK A01 T03920155  RH  025%=      5-min Rain = 0
KES1 202331Z 15015KT 39/16 A2977 RMK A01 T03910155  RH  025%=      5-min Rain = 0
KES1 202332Z 15015KT 39/16 A2977 RMK A01 T03900155  RH  025%=      5-min Rain = 0
KES1 202333Z 15016KT 39/16 A2977 RMK A01 T03890155  RH  025%=      5-min Rain = 0
KES1 202334Z 16011G16KT 39/16 A2977 RMK A01 T03890155  RH  025%=      5-min Rain = 0
KES1 202335Z 16009KT 39/16 A2977 RMK A01 T03900158  RH  026%=      5-min Rain = 0
KES1 202336Z 15013G18KT 39/16 A2977 RMK A01 T03910159  RH  026%=      5-min Rain = 0
KES1 202337Z 16013KT 39/16 A2977 RMK A01 T03910156  RH  025%=      5-min Rain = 0
KES1 202338Z 17012KT 39/16 A2977 RMK A01 T03910155  RH  025%=      5-min Rain = 0
KES1 202339Z 17009KT 39/16 A2977 RMK A01 T03910156  RH  025%=      5-min Rain = 0
KES1 202340Z 15010G15KT 39/16 A2977 RMK A01 T03910155  RH  025%=      5-min Rain = 0
KES1 202341Z 16010KT 39/16 A2977 RMK A01 T03910157  RH  025%=      5-min Rain = 0
KES1 202342Z 15011KT 39/16 A2977 RMK A01 T03910158  RH  025%=      5-min Rain = 0
KES1 202343Z 15010KT 39/16 A2977 RMK A01 T03910158  RH  025%=      5-min Rain = 0
KES1 202344Z 15011KT 39/16 A2977 RMK A01 T03910158  RH  025%=      5-min Rain = 0
KES1 202345Z 16012KT 39/16 A2977 RMK A01 T03910158  RH  025%=      5-min Rain = 0
KES1 202346Z 15015KT 39/16 A2977 RMK A01 T03910157  RH  025%=      5-min Rain = 0
KES1 202347Z 14013KT 39/16 A2977 RMK A01 T03890158  RH  026%=      5-min Rain = 0
KES1 202348Z 16013G19KT 39/16 A2977 RMK A01 T03890158  RH  026%=      5-min Rain = 0
KES1 202349Z 15014KT 39/16 A2977 RMK A01 T03880158  RH  026%=      5-min Rain = 0
KES1 202350Z 16015KT 39/16 A2977 RMK A01 T03880158  RH  026%=      5-min Rain = 0
KES1 202351Z 16013KT 39/16 A2977 RMK A01 T03870158  RH  026%=      5-min Rain = 0
KES1 202352Z 15015KT 39/16 A2977 RMK A01 T03870158  RH  026%=      5-min Rain = 0
KES1 202353Z 15012G18KT 39/16 A2977 RMK A01 T03870159  RH  026%=      5-min Rain = 0
KES1 202354Z 15012KT 39/16 A2977 RMK A01 T03870160  RH  026%=      5-min Rain = 0
KES1 202355Z 15015G21KT 39/16 A2977 RMK A01 T03880161  RH  026%=      5-min Rain = 0
KES1 202356Z 15018G23KT 39/16 A2977 RMK A01 T03880158  RH  026%=      5-min Rain = 0
KES1 202357Z 15017KT 39/16 A2977 RMK A01 T03860156  RH  026%=      5-min Rain = 0
KES1 202358Z 15016G22KT 39/16 A2977 RMK A01 T03850158  RH  026%=      5-min Rain = 0
KES1 202359Z 14015KT 39/16 A2977 RMK A01 T03860157  RH  026%=      5-min Rain = 0
KES1 210000Z 14014KT 39/16 A2977 RMK A01 T03850157  RH  026%=      5-min Rain = 0
KES1 210001Z 14015KT 39/16 A2977 RMK A01 T03850157  RH  026%=      5-min Rain = 0
KES1 210002Z 14015KT 39/16 A2977 RMK A01 T03850158  RH  026%=      5-min Rain = 0
KES1 210003Z 14018KT 39/16 A2977 RMK A01 T03850157  RH  026%=      5-min Rain = 0
KES1 210004Z 14014KT 38/16 A2977 RMK A01 T03840157  RH  026%=      5-min Rain = 0
KES1 210005Z 14015G20KT 38/16 A2977 RMK A01 T03840157  RH  026%=      5-min Rain = 0
KES1 210006Z 14015KT 38/16 A2977 RMK A01 T03840158  RH  026%=      5-min Rain = 0
KES1 210007Z 15014KT 39/16 A2977 RMK A01 T03850159  RH  026%=      5-min Rain = 0
KES1 210008Z 16012KT 38/16 A2977 RMK A01 T03840159  RH  027%=      5-min Rain = 0
KES1 210009Z 14014KT 38/16 A2977 RMK A01 T03840160  RH  027%=      5-min Rain = 0
KES1 210010Z 15015KT 38/16 A2977 RMK A01 T03840160  RH  027%=      5-min Rain = 0
KES1 210011Z 15012KT 38/16 A2977 RMK A01 T03830160  RH  027%=      5-min Rain = 0
KES1 210012Z 15011KT 38/16 A2977 RMK A01 T03830161  RH  027%=      5-min Rain = 0
KES1 210013Z 14014KT 38/16 A2977 RMK A01 T03830159  RH  027%=      5-min Rain = 0
KES1 210014Z 13014KT 38/16 A2977 RMK A01 T03830159  RH  027%=      5-min Rain = 0
KES1 210015Z 13012KT 38/16 A2977 RMK A01 T03830159  RH  027%=      5-min Rain = 0
KES1 210016Z 14015G21KT 38/16 A2977 RMK A01 T03820159  RH  027%=      5-min Rain = 0
KES1 210017Z 14016G22KT 38/16 A2977 RMK A01 T03820158  RH  027%=      5-min Rain = 0
KES1 210018Z 15017KT 38/16 A2977 RMK A01 T03820158  RH  027%=      5-min Rain = 0
KES1 210019Z 14014KT 38/16 A2977 RMK A01 T03810158  RH  027%=      5-min Rain = 0
KES1 210020Z 14014G19KT 38/16 A2977 RMK A01 T03810158  RH  027%=      5-min Rain = 0
KES1 210021Z 15013KT 38/16 A2977 RMK A01 T03810158  RH  027%=      5-min Rain = 0
KES1 210022Z 14014G20KT 38/16 A2977 RMK A01 T03810160  RH  027%=      5-min Rain = 0
KES1 210023Z 15014KT 38/16 A2977 RMK A01 T03810159  RH  027%=      5-min Rain = 0
KES1 210024Z 16014KT 38/16 A2977 RMK A01 T03800160  RH  027%=      5-min Rain = 0
KES1 210025Z 15014KT 38/16 A2977 RMK A01 T03800160  RH  027%=      5-min Rain = 0
KES1 210026Z 15016KT 38/16 A2977 RMK A01 T03800159  RH  027%=      5-min Rain = 0
KES1 210027Z 15013G18KT 38/16 A2977 RMK A01 T03800159  RH  027%=      5-min Rain = 0
KES1 210028Z 14014KT 38/16 A2977 RMK A01 T03800159  RH  027%=      5-min Rain = 0
KES1 210029Z 15013KT 38/16 A2977 RMK A01 T03790158  RH  027%=      5-min Rain = 0
KES1 210030Z 15015KT 38/16 A2977 RMK A01 T03790157  RH  027%=      5-min Rain = 0
KES1 210031Z 15013KT 38/16 A2977 RMK A01 T03790158  RH  027%=      5-min Rain = 0
KES1 210032Z 15016KT 38/16 A2977 RMK A01 T03790158  RH  027%=      5-min Rain = 0
KES1 210033Z 15013KT 38/16 A2977 RMK A01 T03780157  RH  027%=      5-min Rain = 0
KES1 210034Z 15013G19KT 38/16 A2977 RMK A01 T03780158  RH  027%=      5-min Rain = 0
KES1 210035Z 15015KT 38/16 A2977 RMK A01 T03780157  RH  027%=      5-min Rain = 0
KES1 210036Z 15014KT 38/16 A2978 RMK A01 T03780157  RH  027%=      5-min Rain = 0
KES1 210037Z 14013KT 38/16 A2977 RMK A01 T03770156  RH  027%=      5-min Rain = 0
KES1 210038Z 15013KT 38/16 A2978 RMK A01 T03770155  RH  027%=      5-min Rain = 0
KES1 210039Z 14015KT 38/16 A2978 RMK A01 T03770155  RH  027%=      5-min Rain = 0
KES1 210040Z 15014KT 38/16 A2978 RMK A01 T03770155  RH  027%=      5-min Rain = 0
KES1 210041Z 14014G21KT 38/16 A2977 RMK A01 T03770157  RH  027%=      5-min Rain = 0
KES1 210042Z 14014KT 38/16 A2977 RMK A01 T03760157  RH  027%=      5-min Rain = 0
KES1 210043Z 14014KT 38/16 A2978 RMK A01 T03760158  RH  028%=      5-min Rain = 0
KES1 210044Z 14014G19KT 38/16 A2978 RMK A01 T03750159  RH  028%=      5-min Rain = 0
KES1 210045Z 14016KT 38/16 A2978 RMK A01 T03750160  RH  028%=      5-min Rain = 0
KES1 210046Z 14013KT 37/16 A2978 RMK A01 T03740160  RH  028%=      5-min Rain = 0
KES1 210047Z 14013KT 37/16 A2978 RMK A01 T03740161  RH  028%=      5-min Rain = 0
KES1 210048Z 14014KT 37/16 A2978 RMK A01 T03740161  RH  029%=      5-min Rain = 0
KES1 210049Z 14015KT 37/16 A2978 RMK A01 T03730162  RH  029%=      5-min Rain = 0
KES1 210050Z 14017KT 37/16 A2978 RMK A01 T03730162  RH  029%=      5-min Rain = 0
KES1 210051Z 14016KT 37/16 A2978 RMK A01 T03730162  RH  029%=      5-min Rain = 0
KES1 210052Z 15014KT 37/16 A2978 RMK A01 T03730163  RH  029%=      5-min Rain = 0
KES1 210053Z 14010KT 37/16 A2978 RMK A01 T03720163  RH  029%=      5-min Rain = 0
KES1 210054Z 14010KT 37/16 A2978 RMK A01 T03710164  RH  029%=      5-min Rain = 0
KES1 210055Z 14011KT 37/16 A2978 RMK A01 T03710164  RH  029%=      5-min Rain = 0
KES1 210056Z 15014KT 37/16 A2978 RMK A01 T03710163  RH  029%=      5-min Rain = 0
KES1 210057Z 14012KT 37/16 A2978 RMK A01 T03700164  RH  030%=      5-min Rain = 0
KES1 210058Z 15011KT 37/16 A2978 RMK A01 T03700164  RH  030%=      5-min Rain = 0
KES1 210059Z 14011KT 37/16 A2978 RMK A01 T03700164  RH  030%=      5-min Rain = 0
KES1 210100Z 15012KT 37/16 A2978 RMK A01 T03690164  RH  030%=      5-min Rain = 0
KES1 210101Z 14012KT 37/17 A2978 RMK A01 T03690165  RH  030%=      5-min Rain = 0
KES1 210102Z 14009KT 37/17 A2978 RMK A01 T03690165  RH  030%=      5-min Rain = 0
KES1 210103Z 14011KT 37/17 A2978 RMK A01 T03680165  RH  030%=      5-min Rain = 0
KES1 210104Z 14011KT 37/17 A2978 RMK A01 T03680165  RH  030%=      5-min Rain = 0
KES1 210105Z 14011KT 37/17 A2978 RMK A01 T03670165  RH  030%=      5-min Rain = 0
KES1 210106Z 13010KT 37/17 A2978 RMK A01 T03670166  RH  030%=      5-min Rain = 0
KES1 210107Z 13012KT 37/17 A2978 RMK A01 T03660165  RH  031%=      5-min Rain = 0
KES1 210108Z 15010KT 37/17 A2978 RMK A01 T03660166  RH  031%=      5-min Rain = 0
KES1 210109Z 14010G15KT 37/17 A2978 RMK A01 T03660167  RH  031%=      5-min Rain = 0
KES1 210110Z 14011KT 37/17 A2978 RMK A01 T03650166  RH  031%=      5-min Rain = 0
KES1 210111Z 14013KT 37/17 A2978 RMK A01 T03650166  RH  031%=      5-min Rain = 0
KES1 210112Z 14013KT 37/17 A2978 RMK A01 T03650165  RH  031%=      5-min Rain = 0
KES1 210113Z 14014KT 37/17 A2978 RMK A01 T03650165  RH  031%=      5-min Rain = 0
KES1 210114Z 14013KT 37/16 A2978 RMK A01 T03650164  RH  031%=      5-min Rain = 0
KES1 210115Z 14012KT 37/17 A2978 RMK A01 T03650165  RH  031%=      5-min Rain = 0
KES1 210116Z 15010KT 36/17 A2978 RMK A01 T03640166  RH  031%=      5-min Rain = 0
KES1 210117Z 14008KT 36/17 A2978 RMK A01 T03630166  RH  031%=      5-min Rain = 0
KES1 210118Z 14008KT 36/17 A2979 RMK A01 T03620167  RH  031%=      5-min Rain = 0
KES1 210119Z 14011KT 36/17 A2978 RMK A01 T03610166  RH  031%=      5-min Rain = 0
KES1 210120Z 15012KT 36/17 A2978 RMK A01 T03610165  RH  031%=      5-min Rain = 0
KES1 210121Z 13011KT 36/17 A2978 RMK A01 T03610165  RH  031%=      5-min Rain = 0
KES1 210122Z 14012KT 36/17 A2978 RMK A01 T03610165  RH  031%=      5-min Rain = 0
KES1 210123Z 15011KT 36/16 A2978 RMK A01 T03600164  RH  031%=      5-min Rain = 0
KES1 210124Z 14012KT 36/16 A2978 RMK A01 T03600164  RH  031%=      5-min Rain = 0
KES1 210125Z 14013KT 36/16 A2979 RMK A01 T03600164  RH  031%=      5-min Rain = 0
KES1 210126Z 14013KT 36/16 A2979 RMK A01 T03600164  RH  031%=      5-min Rain = 0
KES1 210127Z 14010KT 36/16 A2979 RMK A01 T03600164  RH  031%=      5-min Rain = 0
KES1 210128Z 14010KT 36/16 A2979 RMK A01 T03590164  RH  031%=      5-min Rain = 0
KES1 210129Z 14012KT 36/16 A2979 RMK A01 T03580164  RH  032%=      5-min Rain = 0
KES1 210130Z 14012KT 36/17 A2979 RMK A01 T03580165  RH  032%=      5-min Rain = 0
KES1 210131Z 13010KT 36/17 A2979 RMK A01 T03580165  RH  032%=      5-min Rain = 0
KES1 210132Z 14011KT 36/17 A2979 RMK A01 T03570166  RH  032%=      5-min Rain = 0
KES1 210133Z 14012KT 36/17 A2979 RMK A01 T03560167  RH  033%=      5-min Rain = 0
KES1 210134Z 13011G16KT 36/17 A2979 RMK A01 T03550167  RH  033%=      5-min Rain = 0
KES1 210135Z 14010KT 36/17 A2979 RMK A01 T03550167  RH  033%=      5-min Rain = 0
KES1 210136Z 14012KT 36/17 A2979 RMK A01 T03550167  RH  033%=      5-min Rain = 0
KES1 210137Z 14010KT 35/17 A2979 RMK A01 T03540168  RH  033%=      5-min Rain = 0
KES1 210138Z 14011KT 36/17 A2979 RMK A01 T03550169  RH  033%=      5-min Rain = 0
KES1 210139Z 14010G15KT 35/17 A2979 RMK A01 T03540169  RH  033%=      5-min Rain = 0
KES1 210140Z 14011KT 35/17 A2979 RMK A01 T03530168  RH  034%=      5-min Rain = 0
KES1 210141Z 13011KT 35/17 A2979 RMK A01 T03520168  RH  034%=      5-min Rain = 0
KES1 210142Z 14015KT 35/17 A2979 RMK A01 T03520168  RH  034%=      5-min Rain = 0
KES1 210143Z 14013KT 35/17 A2979 RMK A01 T03520168  RH  034%=      5-min Rain = 0
KES1 210144Z 14013KT 35/17 A2979 RMK A01 T03520168  RH  034%=      5-min Rain = 0
KES1 210145Z 14016KT 35/17 A2979 RMK A01 T03520168  RH  034%=      5-min Rain = 0
KES1 210146Z 14014KT 35/17 A2979 RMK A01 T03530168  RH  033%=      5-min Rain = 0
KES1 210147Z 14016KT 35/17 A2979 RMK A01 T03530168  RH  033%=      5-min Rain = 0
KES1 210148Z 14014KT 35/17 A2979 RMK A01 T03530168  RH  033%=      5-min Rain = 0
KES1 210149Z 14013KT 35/17 A2979 RMK A01 T03520167  RH  033%=      5-min Rain = 0
KES1 210150Z 14012KT 35/17 A2979 RMK A01 T03520167  RH  034%=      5-min Rain = 0
KES1 210151Z 14012KT 35/17 A2979 RMK A01 T03510167  RH  034%=      5-min Rain = 0
KES1 210152Z 14015KT 35/17 A2979 RMK A01 T03500167  RH  034%=      5-min Rain = 0
KES1 210153Z 14014G19KT 35/17 A2979 RMK A01 T03500167  RH  034%=      5-min Rain = 0
KES1 210154Z 14011KT 35/17 A2979 RMK A01 T03500167  RH  034%=      5-min Rain = 0
KES1 210155Z 14010KT 35/17 A2979 RMK A01 T03500167  RH  034%=      5-min Rain = 0
KES1 210156Z 13012KT 35/17 A2979 RMK A01 T03490167  RH  034%=      5-min Rain = 0
KES1 210157Z 14015KT 35/17 A2979 RMK A01 T03490168  RH  034%=      5-min Rain = 0
KES1 210158Z 14012KT 35/17 A2979 RMK A01 T03490168  RH  034%=      5-min Rain = 0
KES1 210159Z 14011KT 35/17 A2979 RMK A01 T03490167  RH  034%=      5-min Rain = 0
KES1 210200Z 14011KT 35/17 A2979 RMK A01 T03480168  RH  034%=      5-min Rain = 0
KES1 210201Z 13012KT 35/17 A2979 RMK A01 T03480168  RH  034%=      5-min Rain = 0
KES1 210202Z 14010KT 35/17 A2979 RMK A01 T03470168  RH  035%=      5-min Rain = 0
KES1 210203Z 14012KT 35/17 A2979 RMK A01 T03470168  RH  035%=      5-min Rain = 0
KES1 210204Z 13012KT 35/17 A2979 RMK A01 T03460168  RH  035%=      5-min Rain = 0
KES1 210205Z 14014G19KT 35/17 A2979 RMK A01 T03460168  RH  035%=      5-min Rain = 0
KES1 210206Z 14014KT 35/17 A2979 RMK A01 T03460168  RH  035%=      5-min Rain = 0
KES1 210207Z 14013KT 35/17 A2979 RMK A01 T03460168  RH  035%=      5-min Rain = 0
KES1 210208Z 14011KT 35/17 A2979 RMK A01 T03460168  RH  035%=      5-min Rain = 0
KES1 210209Z 14011KT 35/17 A2979 RMK A01 T03460168  RH  035%=      5-min Rain = 0
KES1 210210Z 14011KT 35/17 A2979 RMK A01 T03450168  RH  035%=      5-min Rain = 0
KES1 210211Z 13013KT 34/17 A2979 RMK A01 T03440168  RH  035%=      5-min Rain = 0
KES1 210212Z 14010KT 34/17 A298 RMK A01 T03440168  RH  035%=      5-min Rain = 0
KES1 210213Z 14011KT 34/17 A298 RMK A01 T03430168  RH  035%=      5-min Rain = 0
KES1 210214Z 14011KT 34/17 A298 RMK A01 T03430168  RH  035%=      5-min Rain = 0
KES1 210215Z 14011KT 34/17 A298 RMK A01 T03430168  RH  035%=      5-min Rain = 0
KES1 210216Z 14009G14KT 34/17 A298 RMK A01 T03420168  RH  035%=      5-min Rain = 0
KES1 210217Z 14010KT 34/17 A298 RMK A01 T03420168  RH  036%=      5-min Rain = 0
KES1 210218Z 14010KT 34/17 A298 RMK A01 T03410168  RH  036%=      5-min Rain = 0
KES1 210219Z 14009KT 34/17 A298 RMK A01 T03410168  RH  036%=      5-min Rain = 0
KES1 210220Z 14010KT 34/17 A298 RMK A01 T03400168  RH  036%=      5-min Rain = 0
KES1 210221Z 14013KT 34/17 A298 RMK A01 T03400168  RH  036%=      5-min Rain = 0
KES1 210222Z 14012KT 34/17 A298 RMK A01 T03400168  RH  036%=      5-min Rain = 0
KES1 210223Z 14013KT 34/17 A298 RMK A01 T03400167  RH  036%=      5-min Rain = 0
KES1 210224Z 15012KT 34/17 A298 RMK A01 T03410167  RH  036%=      5-min Rain = 0
KES1 210225Z 14011G17KT 34/17 A298 RMK A01 T03400167  RH  036%=      5-min Rain = 0
KES1 210226Z 14013KT 34/17 A298 RMK A01 T03410167  RH  036%=      5-min Rain = 0
KES1 210227Z 14012KT 34/17 A298 RMK A01 T03400167  RH  036%=      5-min Rain = 0
KES1 210228Z 14012KT 34/17 A298 RMK A01 T03400167  RH  036%=      5-min Rain = 0
KES1 210229Z 13010KT 34/17 A298 RMK A01 T03400167  RH  036%=      5-min Rain = 0
KES1 210230Z 14012KT 34/17 A298 RMK A01 T03390167  RH  036%=      5-min Rain = 0
KES1 210231Z 14013KT 34/17 A298 RMK A01 T03390167  RH  036%=      5-min Rain = 0
KES1 210232Z 14012KT 34/17 A298 RMK A01 T03390167  RH  036%=      5-min Rain = 0
KES1 210233Z 14010KT 34/17 A298 RMK A01 T03380167  RH  036%=      5-min Rain = 0
KES1 210234Z 14011KT 34/17 A298 RMK A01 T03380167  RH  036%=      5-min Rain = 0
KES1 210235Z 14011KT 34/17 A298 RMK A01 T03370168  RH  036%=      5-min Rain = 0
KES1 210236Z 13011KT 34/17 A298 RMK A01 T03370168  RH  036%=      5-min Rain = 0
KES1 210237Z 13011KT 34/17 A298 RMK A01 T03360168  RH  037%=      5-min Rain = 0
KES1 210238Z 13012KT 34/17 A298 RMK A01 T03360168  RH  037%=      5-min Rain = 0
KES1 210239Z 14011KT 34/17 A298 RMK A01 T03350167  RH  037%=      5-min Rain = 0
KES1 210240Z 14012KT 34/17 A298 RMK A01 T03350168  RH  037%=      5-min Rain = 0
KES1 210241Z 13012KT 34/17 A298 RMK A01 T03350168  RH  037%=      5-min Rain = 0
KES1 210242Z 14011KT 34/17 A298 RMK A01 T03350168  RH  037%=      5-min Rain = 0
KES1 210243Z 13009KT 34/17 A2981 RMK A01 T03350168  RH  037%=      5-min Rain = 0
KES1 210244Z 13012KT 33/17 A2981 RMK A01 T03340168  RH  037%=      5-min Rain = 0
KES1 210245Z 13010KT 33/17 A2981 RMK A01 T03330168  RH  037%=      5-min Rain = 0
KES1 210246Z 13010KT 33/17 A2981 RMK A01 T03330169  RH  037%=      5-min Rain = 0
KES1 210247Z 14010KT 33/17 A2981 RMK A01 T03330169  RH  038%=      5-min Rain = 0
KES1 210248Z 13011KT 33/17 A2981 RMK A01 T03320169  RH  038%=      5-min Rain = 0
KES1 210249Z 13010KT 33/17 A2981 RMK A01 T03320169  RH  038%=      5-min Rain = 0
KES1 210250Z 14010KT 33/17 A2981 RMK A01 T03320170  RH  038%=      5-min Rain = 0
KES1 210251Z 14012KT 33/17 A2981 RMK A01 T03310170  RH  038%=      5-min Rain = 0
KES1 210252Z 13011KT 33/17 A2981 RMK A01 T03310170  RH  038%=      5-min Rain = 0
KES1 210253Z 13014KT 33/17 A2981 RMK A01 T03310171  RH  038%=      5-min Rain = 0
KES1 210254Z 13013KT 33/17 A2981 RMK A01 T03310171  RH  038%=      5-min Rain = 0
KES1 210255Z 13013KT 33/17 A2981 RMK A01 T03320172  RH  038%=      5-min Rain = 0
KES1 210256Z 14013KT 33/17 A2981 RMK A01 T03320172  RH  039%=      5-min Rain = 0
KES1 210257Z 14012KT 33/17 A2981 RMK A01 T03310172  RH  039%=      5-min Rain = 0
KES1 210258Z 13011KT 33/17 A2981 RMK A01 T03310173  RH  039%=      5-min Rain = 0
KES1 210259Z 14011KT 33/17 A2981 RMK A01 T03300172  RH  039%=      5-min Rain = 0
KES1 210300Z 14014KT 33/17 A2981 RMK A01 T03300173  RH  039%=      5-min Rain = 0
KES1 210301Z 13014KT 33/17 A2981 RMK A01 T03290173  RH  039%=      5-min Rain = 0
KES1 210302Z 13012KT 33/17 A2982 RMK A01 T03300173  RH  039%=      5-min Rain = 0
KES1 210303Z 14012KT 33/17 A2982 RMK A01 T03290173  RH  039%=      5-min Rain = 0
KES1 210304Z 13013KT 33/17 A2982 RMK A01 T03300173  RH  039%=      5-min Rain = 0
KES1 210305Z 14013KT 33/17 A2982 RMK A01 T03300174  RH  039%=      5-min Rain = 0
KES1 210306Z 13011KT 33/17 A2982 RMK A01 T03290173  RH  039%=      5-min Rain = 0
KES1 210307Z 14012KT 33/17 A2982 RMK A01 T03280173  RH  040%=      5-min Rain = 0
KES1 210308Z 14013KT 33/17 A2982 RMK A01 T03280173  RH  040%=      5-min Rain = 0
KES1 210309Z 13013KT 33/17 A2982 RMK A01 T03280173  RH  040%=      5-min Rain = 0
KES1 210310Z 14012G18KT 33/17 A2982 RMK A01 T03280173  RH  040%=      5-min Rain = 0
KES1 210311Z 14012KT 33/17 A2982 RMK A01 T03280173  RH  040%=      5-min Rain = 0
KES1 210312Z 14013KT 33/17 A2982 RMK A01 T03280173  RH  040%=      5-min Rain = 0
KES1 210313Z 14013KT 33/17 A2982 RMK A01 T03280173  RH  040%=      5-min Rain = 0
KES1 210314Z 14016KT 33/17 A2982 RMK A01 T03280173  RH  040%=      5-min Rain = 0
KES1 210315Z 13013KT 33/17 A2982 RMK A01 T03280173  RH  040%=      5-min Rain = 0
KES1 210316Z 14013G18KT 33/17 A2982 RMK A01 T03280173  RH  040%=      5-min Rain = 0
KES1 210317Z 13014G19KT 33/17 A2982 RMK A01 T03280173  RH  040%=      5-min Rain = 0
KES1 210318Z 14014KT 33/17 A2982 RMK A01 T03270173  RH  040%=      5-min Rain = 0
KES1 210319Z 14011G16KT 33/17 A2983 RMK A01 T03270173  RH  040%=      5-min Rain = 0
KES1 210320Z 14012KT 33/17 A2983 RMK A01 T03270173  RH  040%=      5-min Rain = 0
KES1 210321Z 14014KT 33/17 A2983 RMK A01 T03260172  RH  040%=      5-min Rain = 0
KES1 210322Z 14013KT 33/17 A2983 RMK A01 T03260172  RH  040%=      5-min Rain = 0
KES1 210323Z 14013G18KT 33/17 A2983 RMK A01 T03260172  RH  040%=      5-min Rain = 0
KES1 210324Z 13012KT 33/17 A2983 RMK A01 T03260172  RH  040%=      5-min Rain = 0
KES1 210325Z 14014KT 33/17 A2983 RMK A01 T03250172  RH  040%=      5-min Rain = 0
KES1 210326Z 14015KT 33/17 A2983 RMK A01 T03250172  RH  040%=      5-min Rain = 0
KES1 210327Z 14013KT 33/17 A2983 RMK A01 T03250172  RH  040%=      5-min Rain = 0
KES1 210328Z 14013KT 32/17 A2983 RMK A01 T03240172  RH  040%=      5-min Rain = 0
KES1 210329Z 14012KT 32/17 A2983 RMK A01 T03240172  RH  040%=      5-min Rain = 0
KES1 210330Z 14010KT 32/17 A2983 RMK A01 T03240172  RH  040%=      5-min Rain = 0
KES1 210331Z 14011KT 32/17 A2983 RMK A01 T03230172  RH  041%=      5-min Rain = 0
KES1 210332Z 14012G17KT 32/17 A2983 RMK A01 T03220172  RH  041%=      5-min Rain = 0
KES1 210333Z 14010KT 32/17 A2983 RMK A01 T03220172  RH  041%=      5-min Rain = 0
KES1 210334Z 14013G18KT 32/17 A2983 RMK A01 T03220172  RH  041%=      5-min Rain = 0
KES1 210335Z 14014KT 32/17 A2983 RMK A01 T03220172  RH  041%=      5-min Rain = 0
KES1 210336Z 14012KT 32/17 A2983 RMK A01 T03220172  RH  041%=      5-min Rain = 0
KES1 210337Z 14011KT 32/17 A2983 RMK A01 T03220172  RH  041%=      5-min Rain = 0
KES1 210338Z 14012KT 32/17 A2983 RMK A01 T03210172  RH  041%=      5-min Rain = 0
KES1 210339Z 14010KT 32/17 A2983 RMK A01 T03200172  RH  041%=      5-min Rain = 0
KES1 210340Z 14013KT 32/17 A2983 RMK A01 T03210173  RH  041%=      5-min Rain = 0
KES1 210341Z 14010KT 32/17 A2983 RMK A01 T03210172  RH  041%=      5-min Rain = 0
KES1 210342Z 14012KT 32/17 A2983 RMK A01 T03200173  RH  041%=      5-min Rain = 0
KES1 210343Z 13012KT 32/17 A2983 RMK A01 T03200173  RH  041%=      5-min Rain = 0
KES1 210344Z 13012KT 32/17 A2983 RMK A01 T03190173  RH  042%=      5-min Rain = 0
KES1 210345Z 14012G18KT 32/17 A2983 RMK A01 T03190173  RH  042%=      5-min Rain = 0
KES1 210346Z 14012KT 32/17 A2983 RMK A01 T03190173  RH  042%=      5-min Rain = 0
KES1 210347Z 14011KT 32/17 A2984 RMK A01 T03180173  RH  042%=      5-min Rain = 0
KES1 210348Z 14011KT 32/17 A2984 RMK A01 T03180174  RH  042%=      5-min Rain = 0
KES1 210349Z 14012KT 32/17 A2984 RMK A01 T03180174  RH  042%=      5-min Rain = 0
KES1 210350Z 14013KT 32/17 A2984 RMK A01 T03170174  RH  042%=      5-min Rain = 0
KES1 210351Z 14011KT 32/17 A2984 RMK A01 T03170174  RH  043%=      5-min Rain = 0
KES1 210352Z 14013KT 32/17 A2984 RMK A01 T03160174  RH  043%=      5-min Rain = 0
KES1 210353Z 14010G15KT 32/17 A2984 RMK A01 T03160174  RH  043%=      5-min Rain = 0
KES1 210354Z 14013KT 32/18 A2984 RMK A01 T03170175  RH  043%=      5-min Rain = 0
KES1 210355Z 13012KT 32/18 A2984 RMK A01 T03160175  RH  043%=      5-min Rain = 0
KES1 210356Z 14012KT 32/18 A2984 RMK A01 T03160175  RH  043%=      5-min Rain = 0
KES1 210357Z 14014G19KT 32/18 A2984 RMK A01 T03160175  RH  043%=      5-min Rain = 0
KES1 210358Z 14013KT 32/17 A2984 RMK A01 T03160174  RH  043%=      5-min Rain = 0
KES1 210359Z 14011KT 32/18 A2984 RMK A01 T03160175  RH  043%=      5-min Rain = 0
KES1 210400Z 14012KT 32/18 A2984 RMK A01 T03150175  RH  043%=      5-min Rain = 0
KES1 210401Z 13010KT 32/18 A2984 RMK A01 T03150175  RH  043%=      5-min Rain = 0
KES1 210402Z 14010KT 32/18 A2985 RMK A01 T03150175  RH  043%=      5-min Rain = 0
KES1 210403Z 14012KT 31/18 A2985 RMK A01 T03140175  RH  043%=      5-min Rain = 0
KES1 210404Z 14012KT 31/18 A2985 RMK A01 T03140175  RH  043%=      5-min Rain = 0
KES1 210405Z 14013KT 31/18 A2985 RMK A01 T03140175  RH  043%=      5-min Rain = 0
KES1 210406Z 13012KT 31/18 A2985 RMK A01 T03140175  RH  043%=      5-min Rain = 0
KES1 210407Z 14013KT 31/18 A2985 RMK A01 T03140175  RH  043%=      5-min Rain = 0
KES1 210408Z 14013G18KT 31/18 A2985 RMK A01 T03140175  RH  043%=      5-min Rain = 0
KES1 210409Z 14016KT 31/18 A2985 RMK A01 T03140175  RH  043%=      5-min Rain = 0
KES1 210410Z 14012KT 31/17 A2985 RMK A01 T03140174  RH  043%=      5-min Rain = 0
KES1 210411Z 14013KT 31/17 A2985 RMK A01 T03140174  RH  043%=      5-min Rain = 0
KES1 210412Z 14012KT 31/17 A2985 RMK A01 T03130174  RH  043%=      5-min Rain = 0
KES1 210413Z 14011KT 31/17 A2985 RMK A01 T03130174  RH  043%=      5-min Rain = 0
KES1 210414Z 14010KT 31/17 A2985 RMK A01 T03130174  RH  044%=      5-min Rain = 0
KES1 210415Z 14012KT 31/18 A2985 RMK A01 T03120175  RH  044%=      5-min Rain = 0
KES1 210416Z 14012KT 31/17 A2985 RMK A01 T03120174  RH  044%=      5-min Rain = 0
KES1 210417Z 14012KT 31/17 A2985 RMK A01 T03110174  RH  044%=      5-min Rain = 0
KES1 210418Z 14011KT 31/17 A2985 RMK A01 T03110174  RH  044%=      5-min Rain = 0
KES1 210419Z 14012KT 31/17 A2985 RMK A01 T03110174  RH  044%=      5-min Rain = 0
KES1 210420Z 14014KT 31/17 A2985 RMK A01 T03110174  RH  044%=      5-min Rain = 0
KES1 210421Z 14012G17KT 31/17 A2985 RMK A01 T03110174  RH  044%=      5-min Rain = 0
KES1 210422Z 14011KT 31/17 A2985 RMK A01 T03110173  RH  044%=      5-min Rain = 0
KES1 210423Z 14012KT 31/17 A2985 RMK A01 T03110173  RH  044%=      5-min Rain = 0
KES1 210424Z 14012KT 31/17 A2985 RMK A01 T03100173  RH  044%=      5-min Rain = 0
KES1 210425Z 14013KT 31/17 A2985 RMK A01 T03100173  RH  044%=      5-min Rain = 0
KES1 210426Z 14012KT 31/17 A2985 RMK A01 T03100173  RH  044%=      5-min Rain = 0
KES1 210427Z 14011KT 31/17 A2985 RMK A01 T03100173  RH  044%=      5-min Rain = 0
KES1 210428Z 14013KT 31/17 A2985 RMK A01 T03090173  RH  044%=      5-min Rain = 0
KES1 210429Z 14012KT 31/17 A2985 RMK A01 T03090173  RH  044%=      5-min Rain = 0
KES1 210430Z 13014KT 31/17 A2985 RMK A01 T03090173  RH  044%=      5-min Rain = 0
KES1 210431Z 14012KT 31/17 A2985 RMK A01 T03090173  RH  044%=      5-min Rain = 0
KES1 210432Z 14014KT 31/17 A2985 RMK A01 T03090172  RH  044%=      5-min Rain = 0
KES1 210433Z 14011KT 31/17 A2985 RMK A01 T03090172  RH  044%=      5-min Rain = 0
KES1 210434Z 14011KT 31/17 A2985 RMK A01 T03090173  RH  044%=      5-min Rain = 0
KES1 210435Z 14012KT 31/17 A2985 RMK A01 T03080173  RH  044%=      5-min Rain = 0
KES1 210436Z 14011KT 31/17 A2985 RMK A01 T03080173  RH  044%=      5-min Rain = 0
KES1 210437Z 14011KT 31/17 A2985 RMK A01 T03070173  RH  045%=      5-min Rain = 0
KES1 210438Z 14011KT 31/17 A2985 RMK A01 T03070172  RH  045%=      5-min Rain = 0
KES1 210439Z 14010KT 31/17 A2985 RMK A01 T03070173  RH  045%=      5-min Rain = 0
KES1 210440Z 14012KT 31/17 A2985 RMK A01 T03060172  RH  045%=      5-min Rain = 0
KES1 210441Z 14011KT 31/17 A2985 RMK A01 T03060173  RH  045%=      5-min Rain = 0
KES1 210442Z 14013G18KT 31/17 A2985 RMK A01 T03060173  RH  045%=      5-min Rain = 0
KES1 210443Z 14012KT 31/17 A2985 RMK A01 T03060172  RH  045%=      5-min Rain = 0
KES1 210444Z 14015KT 31/17 A2985 RMK A01 T03060172  RH  045%=      5-min Rain = 0
KES1 210445Z 14012KT 31/17 A2985 RMK A01 T03060172  RH  045%=      5-min Rain = 0
KES1 210446Z 14011KT 31/17 A2985 RMK A01 T03060172  RH  045%=      5-min Rain = 0
KES1 210447Z 14011KT 31/17 A2985 RMK A01 T03060173  RH  045%=      5-min Rain = 0
KES1 210448Z 14012KT 31/17 A2985 RMK A01 T03050172  RH  045%=      5-min Rain = 0
KES1 210449Z 14012KT 31/17 A2985 RMK A01 T03050173  RH  045%=      5-min Rain = 0
KES1 210450Z 14012KT 31/17 A2985 RMK A01 T03050173  RH  045%=      5-min Rain = 0
KES1 210451Z 14011KT 31/17 A2985 RMK A01 T03050173  RH  045%=      5-min Rain = 0
KES1 210452Z 14009KT 30/17 A2985 RMK A01 T03040173  RH  045%=      5-min Rain = 0
KES1 210453Z 14011KT 30/17 A2985 RMK A01 T03030173  RH  046%=      5-min Rain = 0
KES1 210454Z 14013KT 30/17 A2985 RMK A01 T03030173  RH  046%=      5-min Rain = 0
KES1 210455Z 14012KT 30/17 A2985 RMK A01 T03030173  RH  046%=      5-min Rain = 0
KES1 210456Z 14011KT 30/17 A2985 RMK A01 T03030173  RH  046%=      5-min Rain = 0
KES1 210457Z 14011KT 30/17 A2985 RMK A01 T03030173  RH  046%=      5-min Rain = 0
KES1 210458Z 15013KT 30/17 A2985 RMK A01 T03030174  RH  046%=      5-min Rain = 0
KES1 210459Z 15011KT 30/17 A2985 RMK A01 T03030173  RH  046%=      5-min Rain = 0

Page generated in 0.1213 seconds.